Observation data for Fort Lewis CO on 09/11/2017      Previous  Date       Current Mesonet Observations  Soil Data  Daily Summary Page  Observations in Plain Language
KFL1 110500Z 03006KT 14/08 A3045 RMK A01 T01380077  RH  067%=      5-min Rain = 0
KFL1 110501Z 03006KT 14/07 A3045 RMK A01 T01350074  RH  066%=      5-min Rain = 0
KFL1 110502Z 03006KT 14/07 A3045 RMK A01 T01350074  RH  067%=      5-min Rain = 0
KFL1 110503Z 03006KT 13/08 A3045 RMK A01 T01340075  RH  067%=      5-min Rain = 0
KFL1 110504Z 03006KT 13/08 A3045 RMK A01 T01340075  RH  068%=      5-min Rain = 0
KFL1 110505Z 03006KT 13/07 A3045 RMK A01 T01320074  RH  068%=      5-min Rain = 0
KFL1 110506Z 04005KT 13/07 A3045 RMK A01 T01330074  RH  067%=      5-min Rain = 0
KFL1 110507Z 03006KT 14/08 A3045 RMK A01 T01350075  RH  067%=      5-min Rain = 0
KFL1 110508Z 03006KT 14/08 A3045 RMK A01 T01350076  RH  067%=      5-min Rain = 0
KFL1 110509Z 03007KT 14/08 A3045 RMK A01 T01350075  RH  067%=      5-min Rain = 0
KFL1 110510Z 03007KT 14/08 A3045 RMK A01 T01350076  RH  067%=      5-min Rain = 0
KFL1 110511Z 03007KT 14/08 A3045 RMK A01 T01350076  RH  068%=      5-min Rain = 0
KFL1 110512Z 04007KT 14/08 A3045 RMK A01 T01350076  RH  068%=      5-min Rain = 0
KFL1 110513Z 03007KT 13/08 A3045 RMK A01 T01340075  RH  068%=      5-min Rain = 0
KFL1 110514Z 03007KT 14/08 A3045 RMK A01 T01350076  RH  067%=      5-min Rain = 0
KFL1 110515Z 03007KT 14/08 A3045 RMK A01 T01350075  RH  067%=      5-min Rain = 0
KFL1 110516Z 03007KT 14/08 A3045 RMK A01 T01350075  RH  067%=      5-min Rain = 0
KFL1 110517Z 03007KT 14/08 A3045 RMK A01 T01350075  RH  067%=      5-min Rain = 0
KFL1 110518Z 03006KT 14/07 A3045 RMK A01 T01350074  RH  067%=      5-min Rain = 0
KFL1 110519Z 03006KT 14/07 A3045 RMK A01 T01350073  RH  066%=      5-min Rain = 0
KFL1 110520Z 03006KT 14/08 A3045 RMK A01 T01370075  RH  066%=      5-min Rain = 0
KFL1 110521Z 03006KT 14/07 A3045 RMK A01 T01360074  RH  066%=      5-min Rain = 0
KFL1 110522Z 03006KT 14/07 A3045 RMK A01 T01370074  RH  066%=      5-min Rain = 0
KFL1 110523Z 03005KT 14/08 A3045 RMK A01 T01360075  RH  066%=      5-min Rain = 0
KFL1 110524Z 03006KT 14/07 A3045 RMK A01 T01350074  RH  067%=      5-min Rain = 0
KFL1 110525Z 03005KT 13/07 A3045 RMK A01 T01340074  RH  067%=      5-min Rain = 0
KFL1 110526Z 03006KT 13/07 A3045 RMK A01 T01330074  RH  067%=      5-min Rain = 0
KFL1 110527Z 03006KT 13/07 A3045 RMK A01 T01320073  RH  067%=      5-min Rain = 0
KFL1 110528Z 03006KT 13/07 A3045 RMK A01 T01340073  RH  067%=      5-min Rain = 0
KFL1 110529Z 03006KT 13/07 A3045 RMK A01 T01340073  RH  067%=      5-min Rain = 0
KFL1 110530Z 03006KT 14/07 A3045 RMK A01 T01350074  RH  066%=      5-min Rain = 0
KFL1 110531Z 03006KT 14/07 A3045 RMK A01 T01350074  RH  067%=      5-min Rain = 0
KFL1 110532Z 03006KT 13/07 A3045 RMK A01 T01340073  RH  066%=      5-min Rain = 0
KFL1 110533Z 03006KT 14/07 A3045 RMK A01 T01350074  RH  067%=      5-min Rain = 0
KFL1 110534Z 03006KT 14/07 A3045 RMK A01 T01350074  RH  066%=      5-min Rain = 0
KFL1 110535Z 03006KT 14/07 A3045 RMK A01 T01360074  RH  066%=      5-min Rain = 0
KFL1 110536Z 03006KT 14/07 A3045 RMK A01 T01360074  RH  066%=      5-min Rain = 0
KFL1 110537Z 03006KT 14/07 A3045 RMK A01 T01360074  RH  066%=      5-min Rain = 0
KFL1 110538Z 03006KT 14/07 A3045 RMK A01 T01350073  RH  066%=      5-min Rain = 0
KFL1 110539Z 02005KT 14/07 A3045 RMK A01 T01350073  RH  066%=      5-min Rain = 0
KFL1 110540Z 03006KT 14/07 A3045 RMK A01 T01350074  RH  066%=      5-min Rain = 0
KFL1 110541Z 03006KT 14/07 A3045 RMK A01 T01350074  RH  067%=      5-min Rain = 0
KFL1 110542Z 03005KT 13/07 A3045 RMK A01 T01340074  RH  067%=      5-min Rain = 0
KFL1 110543Z 03006KT 13/07 A3045 RMK A01 T01330074  RH  067%=      5-min Rain = 0
KFL1 110544Z 03006KT 13/07 A3045 RMK A01 T01310072  RH  067%=      5-min Rain = 0
KFL1 110545Z 03006KT 13/07 A3045 RMK A01 T01320073  RH  068%=      5-min Rain = 0
KFL1 110546Z 04006KT 13/07 A3045 RMK A01 T01310073  RH  068%=      5-min Rain = 0
KFL1 110547Z 03006KT 13/08 A3045 RMK A01 T01330075  RH  068%=      5-min Rain = 0
KFL1 110548Z 03006KT 13/07 A3045 RMK A01 T01320074  RH  068%=      5-min Rain = 0
KFL1 110549Z 03006KT 13/08 A3045 RMK A01 T01340075  RH  067%=      5-min Rain = 0
KFL1 110550Z 04005KT 13/07 A3045 RMK A01 T01330074  RH  068%=      5-min Rain = 0
KFL1 110551Z 03006KT 13/08 A3045 RMK A01 T01320075  RH  068%=      5-min Rain = 0
KFL1 110552Z 03006KT 13/07 A3045 RMK A01 T01310074  RH  068%=      5-min Rain = 0
KFL1 110553Z 03006KT 13/07 A3045 RMK A01 T01310073  RH  068%=      5-min Rain = 0
KFL1 110554Z 03006KT 13/07 A3045 RMK A01 T01320073  RH  068%=      5-min Rain = 0
KFL1 110555Z 03007KT 13/07 A3045 RMK A01 T01320073  RH  067%=      5-min Rain = 0
KFL1 110556Z 03006KT 13/07 A3045 RMK A01 T01340074  RH  067%=      5-min Rain = 0
KFL1 110557Z 03006KT 13/07 A3045 RMK A01 T01330073  RH  067%=      5-min Rain = 0
KFL1 110558Z 03006KT 14/07 A3045 RMK A01 T01350074  RH  067%=      5-min Rain = 0
KFL1 110559Z 03006KT 13/07 A3045 RMK A01 T01340072  RH  066%=      5-min Rain = 0
KFL1 110600Z 03005KT 14/07 A3045 RMK A01 T01360074  RH  066%=      5-min Rain = 0
KFL1 110601Z 03006KT 14/07 A3045 RMK A01 T01360073  RH  066%=      5-min Rain = 0
KFL1 110602Z 03006KT 14/07 A3045 RMK A01 T01360073  RH  065%=      5-min Rain = 0
KFL1 110603Z 03006KT 14/07 A3045 RMK A01 T01370073  RH  065%=      5-min Rain = 0
KFL1 110604Z 03005KT 14/07 A3045 RMK A01 T01350072  RH  065%=      5-min Rain = 0
KFL1 110605Z 03005KT 14/07 A3045 RMK A01 T01360073  RH  066%=      5-min Rain = 0
KFL1 110606Z 03005KT 14/07 A3045 RMK A01 T01360073  RH  066%=      5-min Rain = 0
KFL1 110607Z 03005KT 14/07 A3045 RMK A01 T01350072  RH  066%=      5-min Rain = 0
KFL1 110608Z 04005KT 13/07 A3045 RMK A01 T01340073  RH  066%=      5-min Rain = 0
KFL1 110609Z 04006KT 14/07 A3045 RMK A01 T01350074  RH  067%=      5-min Rain = 0
KFL1 110610Z 04006KT 13/07 A3045 RMK A01 T01330074  RH  067%=      5-min Rain = 0
KFL1 110611Z 04006KT 13/08 A3045 RMK A01 T01340075  RH  067%=      5-min Rain = 0
KFL1 110612Z 04007KT 13/08 A3045 RMK A01 T01330075  RH  068%=      5-min Rain = 0
KFL1 110613Z 05007KT 13/07 A3045 RMK A01 T01320074  RH  068%=      5-min Rain = 0
KFL1 110614Z 04007KT 13/07 A3045 RMK A01 T01310074  RH  068%=      5-min Rain = 0
KFL1 110615Z 04007KT 13/07 A3044 RMK A01 T01300073  RH  068%=      5-min Rain = 0
KFL1 110616Z 04007KT 13/07 A3045 RMK A01 T01310074  RH  068%=      5-min Rain = 0
KFL1 110617Z 04007KT 13/07 A3045 RMK A01 T01300072  RH  068%=      5-min Rain = 0
KFL1 110618Z 04008KT 13/07 A3044 RMK A01 T01320074  RH  068%=      5-min Rain = 0
KFL1 110619Z 04008KT 13/07 A3044 RMK A01 T01310073  RH  068%=      5-min Rain = 0
KFL1 110620Z 04008KT 13/07 A3044 RMK A01 T01320073  RH  067%=      5-min Rain = 0
KFL1 110621Z 04007KT 13/07 A3045 RMK A01 T01320073  RH  067%=      5-min Rain = 0
KFL1 110622Z 05007KT 13/07 A3045 RMK A01 T01320074  RH  068%=      5-min Rain = 0
KFL1 110623Z 05007KT 13/08 A3045 RMK A01 T01330076  RH  068%=      5-min Rain = 0
KFL1 110624Z 05007KT 13/08 A3045 RMK A01 T01320075  RH  068%=      5-min Rain = 0
KFL1 110625Z 05008KT 13/07 A3044 RMK A01 T01300074  RH  068%=      5-min Rain = 0
KFL1 110626Z 05008KT 13/07 A3044 RMK A01 T01310074  RH  068%=      5-min Rain = 0
KFL1 110627Z 05008KT 13/07 A3044 RMK A01 T01310073  RH  068%=      5-min Rain = 0
KFL1 110628Z 05009KT 13/07 A3044 RMK A01 T01310072  RH  067%=      5-min Rain = 0
KFL1 110629Z 04008KT 13/07 A3044 RMK A01 T01330073  RH  067%=      5-min Rain = 0
KFL1 110630Z 04009KT 13/07 A3044 RMK A01 T01330072  RH  067%=      5-min Rain = 0
KFL1 110631Z 04009KT 13/07 A3044 RMK A01 T01330072  RH  066%=      5-min Rain = 0
KFL1 110632Z 05008KT 14/07 A3044 RMK A01 T01350073  RH  066%=      5-min Rain = 0
KFL1 110633Z 04008KT 13/07 A3044 RMK A01 T01340072  RH  066%=      5-min Rain = 0
KFL1 110634Z 05008KT 13/07 A3044 RMK A01 T01340073  RH  067%=      5-min Rain = 0
KFL1 110635Z 05008KT 13/07 A3044 RMK A01 T01340073  RH  067%=      5-min Rain = 0
KFL1 110636Z 05009KT 13/07 A3044 RMK A01 T01330073  RH  067%=      5-min Rain = 0
KFL1 110637Z 05009KT 13/07 A3044 RMK A01 T01340073  RH  067%=      5-min Rain = 0
KFL1 110638Z 04008KT 13/07 A3044 RMK A01 T01320072  RH  067%=      5-min Rain = 0
KFL1 110639Z 04008KT 13/07 A3044 RMK A01 T01330071  RH  066%=      5-min Rain = 0
KFL1 110640Z 05008KT 13/07 A3044 RMK A01 T01340072  RH  066%=      5-min Rain = 0
KFL1 110641Z 04008KT 13/07 A3044 RMK A01 T01330071  RH  066%=      5-min Rain = 0
KFL1 110642Z 05008KT 13/07 A3044 RMK A01 T01330071  RH  066%=      5-min Rain = 0
KFL1 110643Z 04008KT 13/07 A3044 RMK A01 T01340072  RH  066%=      5-min Rain = 0
KFL1 110644Z 04008KT 13/07 A3044 RMK A01 T01330072  RH  066%=      5-min Rain = 0
KFL1 110645Z 04008KT 13/07 A3044 RMK A01 T01340072  RH  066%=      5-min Rain = 0
KFL1 110646Z 04008KT 13/07 A3044 RMK A01 T01340072  RH  066%=      5-min Rain = 0
KFL1 110647Z 04009KT 14/07 A3044 RMK A01 T01350072  RH  066%=      5-min Rain = 0
KFL1 110648Z 04008KT 14/07 A3044 RMK A01 T01350072  RH  066%=      5-min Rain = 0
KFL1 110649Z 04008KT 13/07 A3044 RMK A01 T01340071  RH  066%=      5-min Rain = 0
KFL1 110650Z 05008KT 14/07 A3044 RMK A01 T01350072  RH  066%=      5-min Rain = 0
KFL1 110651Z 04009KT 14/07 A3044 RMK A01 T01360073  RH  066%=      5-min Rain = 0
KFL1 110652Z 04008KT 14/07 A3044 RMK A01 T01360073  RH  066%=      5-min Rain = 0
KFL1 110653Z 04008KT 13/07 A3044 RMK A01 T01340072  RH  066%=      5-min Rain = 0
KFL1 110654Z 04008KT 14/07 A3044 RMK A01 T01350072  RH  066%=      5-min Rain = 0
KFL1 110655Z 05009KT 14/07 A3044 RMK A01 T01350072  RH  066%=      5-min Rain = 0
KFL1 110656Z 05009KT 14/07 A3044 RMK A01 T01350072  RH  066%=      5-min Rain = 0
KFL1 110657Z 04009KT 14/07 A3044 RMK A01 T01350071  RH  065%=      5-min Rain = 0
KFL1 110658Z 04009KT 14/07 A3044 RMK A01 T01360072  RH  065%=      5-min Rain = 0
KFL1 110659Z 04009KT 14/07 A3044 RMK A01 T01350070  RH  065%=      5-min Rain = 0
KFL1 110700Z 04009KT 14/07 A3044 RMK A01 T01360071  RH  065%=      5-min Rain = 0
KFL1 110701Z 04009KT 14/07 A3044 RMK A01 T01360071  RH  064%=      5-min Rain = 0
KFL1 110702Z 04009KT 14/07 A3044 RMK A01 T01360071  RH  064%=      5-min Rain = 0
KFL1 110703Z 04009KT 14/07 A3044 RMK A01 T01360070  RH  064%=      5-min Rain = 0
KFL1 110704Z 04009KT 14/07 A3044 RMK A01 T01370070  RH  064%=      5-min Rain = 0
KFL1 110705Z 03009KT 14/07 A3044 RMK A01 T01380071  RH  064%=      5-min Rain = 0
KFL1 110706Z 04009KT 14/07 A3044 RMK A01 T01390071  RH  064%=      5-min Rain = 0
KFL1 110707Z 04009KT 14/07 A3044 RMK A01 T01400072  RH  063%=      5-min Rain = 0
KFL1 110708Z 04009KT 14/07 A3044 RMK A01 T01400071  RH  063%=      5-min Rain = 0
KFL1 110709Z 04008KT 14/07 A3044 RMK A01 T01390070  RH  063%=      5-min Rain = 0
KFL1 110710Z 04007KT 14/07 A3044 RMK A01 T01400071  RH  063%=      5-min Rain = 0
KFL1 110711Z 04008KT 14/07 A3044 RMK A01 T01380070  RH  063%=      5-min Rain = 0
KFL1 110712Z 04008KT 14/07 A3044 RMK A01 T01390071  RH  063%=      5-min Rain = 0
KFL1 110713Z 04008KT 14/07 A3044 RMK A01 T01400071  RH  063%=      5-min Rain = 0
KFL1 110714Z 04008KT 14/07 A3044 RMK A01 T01390070  RH  063%=      5-min Rain = 0
KFL1 110715Z 03008KT 14/07 A3044 RMK A01 T01390070  RH  063%=      5-min Rain = 0
KFL1 110716Z 04007KT 14/07 A3044 RMK A01 T01390070  RH  063%=      5-min Rain = 0
KFL1 110717Z 04008KT 14/07 A3044 RMK A01 T01380070  RH  063%=      5-min Rain = 0
KFL1 110718Z 04007KT 14/07 A3044 RMK A01 T01380070  RH  063%=      5-min Rain = 0
KFL1 110719Z 04007KT 14/07 A3044 RMK A01 T01380070  RH  064%=      5-min Rain = 0
KFL1 110720Z 04008KT 14/07 A3044 RMK A01 T01370070  RH  064%=      5-min Rain = 0
KFL1 110721Z 04007KT 14/07 A3044 RMK A01 T01370070  RH  064%=      5-min Rain = 0
KFL1 110722Z 04007KT 14/07 A3044 RMK A01 T01370071  RH  065%=      5-min Rain = 0
KFL1 110723Z 04008KT 14/07 A3044 RMK A01 T01360071  RH  065%=      5-min Rain = 0
KFL1 110724Z 04007KT 13/07 A3044 RMK A01 T01340070  RH  065%=      5-min Rain = 0
KFL1 110725Z 04007KT 13/07 A3044 RMK A01 T01330070  RH  066%=      5-min Rain = 0
KFL1 110726Z 04008KT 13/07 A3044 RMK A01 T01340071  RH  066%=      5-min Rain = 0
KFL1 110727Z 04008KT 13/07 A3044 RMK A01 T01330071  RH  066%=      5-min Rain = 0
KFL1 110728Z 05008KT 13/07 A3044 RMK A01 T01330071  RH  066%=      5-min Rain = 0
KFL1 110729Z 04008KT 13/07 A3044 RMK A01 T01320071  RH  066%=      5-min Rain = 0
KFL1 110730Z 05008KT 13/07 A3044 RMK A01 T01310070  RH  067%=      5-min Rain = 0
KFL1 110731Z 05008KT 13/07 A3044 RMK A01 T01310070  RH  067%=      5-min Rain = 0
KFL1 110732Z 04008KT 13/07 A3044 RMK A01 T01310071  RH  067%=      5-min Rain = 0
KFL1 110733Z 05008KT 13/07 A3044 RMK A01 T01310071  RH  067%=      5-min Rain = 0
KFL1 110734Z 05008KT 13/07 A3044 RMK A01 T01300070  RH  067%=      5-min Rain = 0
KFL1 110735Z 05008KT 13/07 A3044 RMK A01 T01300070  RH  067%=      5-min Rain = 0
KFL1 110736Z 05009KT 13/07 A3044 RMK A01 T01290070  RH  067%=      5-min Rain = 0
KFL1 110737Z 05009KT 13/07 A3044 RMK A01 T01280068  RH  067%=      5-min Rain = 0
KFL1 110738Z 05009KT 13/07 A3044 RMK A01 T01280068  RH  067%=      5-min Rain = 0
KFL1 110739Z 05008KT 13/07 A3044 RMK A01 T01300069  RH  067%=      5-min Rain = 0
KFL1 110740Z 05008KT 13/07 A3044 RMK A01 T01310069  RH  066%=      5-min Rain = 0
KFL1 110741Z 05008KT 13/07 A3044 RMK A01 T01300068  RH  066%=      5-min Rain = 0
KFL1 110742Z 05008KT 13/07 A3044 RMK A01 T01300068  RH  066%=      5-min Rain = 0
KFL1 110743Z 05008KT 13/07 A3044 RMK A01 T01310069  RH  066%=      5-min Rain = 0
KFL1 110744Z 05008KT 13/07 A3044 RMK A01 T01320069  RH  065%=      5-min Rain = 0
KFL1 110745Z 05008KT 13/07 A3044 RMK A01 T01320068  RH  065%=      5-min Rain = 0
KFL1 110746Z 04009KT 13/07 A3044 RMK A01 T01320068  RH  065%=      5-min Rain = 0
KFL1 110747Z 04009KT 13/07 A3044 RMK A01 T01330068  RH  065%=      5-min Rain = 0
KFL1 110748Z 05009KT 13/07 A3044 RMK A01 T01340069  RH  065%=      5-min Rain = 0
KFL1 110749Z 05009KT 13/07 A3044 RMK A01 T01340068  RH  064%=      5-min Rain = 0
KFL1 110750Z 05008KT 13/07 A3044 RMK A01 T01340069  RH  065%=      5-min Rain = 0
KFL1 110751Z 05008KT 13/07 A3044 RMK A01 T01330068  RH  065%=      5-min Rain = 0
KFL1 110752Z 04008KT 13/07 A3044 RMK A01 T01330068  RH  065%=      5-min Rain = 0
KFL1 110753Z 04009KT 13/07 A3044 RMK A01 T01330067  RH  064%=      5-min Rain = 0
KFL1 110754Z 04009KT 13/07 A3044 RMK A01 T01330067  RH  064%=      5-min Rain = 0
KFL1 110755Z 04008KT 13/07 A3044 RMK A01 T01330067  RH  064%=      5-min Rain = 0
KFL1 110756Z 04009KT 14/07 A3044 RMK A01 T01350067  RH  064%=      5-min Rain = 0
KFL1 110757Z 04009KT 14/07 A3044 RMK A01 T01350068  RH  064%=      5-min Rain = 0
KFL1 110758Z 05009KT 14/07 A3044 RMK A01 T01350067  RH  063%=      5-min Rain = 0
KFL1 110759Z 05008KT 13/07 A3044 RMK A01 T01340066  RH  063%=      5-min Rain = 0
KFL1 110800Z 04008KT 14/07 A3044 RMK A01 T01350067  RH  063%=      5-min Rain = 0
KFL1 110801Z 04010KT 14/07 A3044 RMK A01 T01360068  RH  064%=      5-min Rain = 0
KFL1 110802Z 04010KT 14/07 A3044 RMK A01 T01350066  RH  063%=      5-min Rain = 0
KFL1 110803Z 04009KT 14/07 A3044 RMK A01 T01350067  RH  063%=      5-min Rain = 0
KFL1 110804Z 04009KT 14/07 A3044 RMK A01 T01350066  RH  063%=      5-min Rain = 0
KFL1 110805Z 04009KT 14/07 A3044 RMK A01 T01360067  RH  063%=      5-min Rain = 0
KFL1 110806Z 05009KT 14/07 A3044 RMK A01 T01360067  RH  063%=      5-min Rain = 0
KFL1 110807Z 05010KT 14/07 A3044 RMK A01 T01360066  RH  063%=      5-min Rain = 0
KFL1 110808Z 04009KT 14/07 A3044 RMK A01 T01360065  RH  062%=      5-min Rain = 0
KFL1 110809Z 04009KT 14/07 A3044 RMK A01 T01360065  RH  062%=      5-min Rain = 0
KFL1 110810Z 04009KT 14/07 A3044 RMK A01 T01370066  RH  062%=      5-min Rain = 0
KFL1 110811Z 05009KT 14/07 A3044 RMK A01 T01380066  RH  062%=      5-min Rain = 0
KFL1 110812Z 04009KT 14/07 A3044 RMK A01 T01390067  RH  062%=      5-min Rain = 0
KFL1 110813Z 04009KT 14/07 A3044 RMK A01 T01390066  RH  062%=      5-min Rain = 0
KFL1 110814Z 04009KT 14/07 A3044 RMK A01 T01370065  RH  062%=      5-min Rain = 0
KFL1 110815Z 04009KT 14/07 A3044 RMK A01 T01380065  RH  062%=      5-min Rain = 0
KFL1 110816Z 04009KT 14/07 A3044 RMK A01 T01380066  RH  062%=      5-min Rain = 0
KFL1 110817Z 04009KT 14/07 A3044 RMK A01 T01380066  RH  062%=      5-min Rain = 0
KFL1 110818Z 04008KT 14/07 A3044 RMK A01 T01370066  RH  062%=      5-min Rain = 0
KFL1 110819Z 05008KT 14/07 A3044 RMK A01 T01380067  RH  062%=      5-min Rain = 0
KFL1 110820Z 04008KT 14/07 A3044 RMK A01 T01380067  RH  062%=      5-min Rain = 0
KFL1 110821Z 04008KT 14/07 A3044 RMK A01 T01370067  RH  063%=      5-min Rain = 0
KFL1 110822Z 04008KT 14/07 A3044 RMK A01 T01370067  RH  063%=      5-min Rain = 0
KFL1 110823Z 05008KT 14/07 A3044 RMK A01 T01370068  RH  063%=      5-min Rain = 0
KFL1 110824Z 04007KT 14/07 A3044 RMK A01 T01360068  RH  063%=      5-min Rain = 0
KFL1 110825Z 05008KT 14/07 A3044 RMK A01 T01350068  RH  064%=      5-min Rain = 0
KFL1 110826Z 04008KT 14/07 A3044 RMK A01 T01350068  RH  064%=      5-min Rain = 0
KFL1 110827Z 04008KT 14/07 A3044 RMK A01 T01350068  RH  064%=      5-min Rain = 0
KFL1 110828Z 04008KT 14/07 A3044 RMK A01 T01370069  RH  064%=      5-min Rain = 0
KFL1 110829Z 04008KT 14/07 A3044 RMK A01 T01350067  RH  063%=      5-min Rain = 0
KFL1 110830Z 04007KT 14/07 A3044 RMK A01 T01350067  RH  063%=      5-min Rain = 0
KFL1 110831Z 04008KT 14/07 A3044 RMK A01 T01360067  RH  063%=      5-min Rain = 0
KFL1 110832Z 04008KT 14/07 A3044 RMK A01 T01360068  RH  063%=      5-min Rain = 0
KFL1 110833Z 04008KT 14/07 A3044 RMK A01 T01350067  RH  064%=      5-min Rain = 0
KFL1 110834Z 04008KT 13/07 A3044 RMK A01 T01340066  RH  063%=      5-min Rain = 0
KFL1 110835Z 04008KT 13/07 A3044 RMK A01 T01340067  RH  064%=      5-min Rain = 0
KFL1 110836Z 04007KT 13/07 A3044 RMK A01 T01340067  RH  063%=      5-min Rain = 0
KFL1 110837Z 04008KT 14/07 A3044 RMK A01 T01350067  RH  064%=      5-min Rain = 0
KFL1 110838Z 04008KT 14/07 A3044 RMK A01 T01350068  RH  064%=      5-min Rain = 0
KFL1 110839Z 04008KT 13/07 A3044 RMK A01 T01340066  RH  063%=      5-min Rain = 0
KFL1 110840Z 04008KT 13/07 A3044 RMK A01 T01340065  RH  063%=      5-min Rain = 0
KFL1 110841Z 04009KT 14/07 A3044 RMK A01 T01350066  RH  063%=      5-min Rain = 0
KFL1 110842Z 04008KT 13/07 A3044 RMK A01 T01340066  RH  063%=      5-min Rain = 0
KFL1 110843Z 04008KT 13/07 A3044 RMK A01 T01340066  RH  063%=      5-min Rain = 0
KFL1 110844Z 04008KT 13/07 A3044 RMK A01 T01340065  RH  063%=      5-min Rain = 0
KFL1 110845Z 04008KT 14/07 A3044 RMK A01 T01350066  RH  063%=      5-min Rain = 0
KFL1 110846Z 05008KT 13/07 A3044 RMK A01 T01340065  RH  063%=      5-min Rain = 0
KFL1 110847Z 04008KT 13/07 A3044 RMK A01 T01330065  RH  063%=      5-min Rain = 0
KFL1 110848Z 04009KT 13/07 A3044 RMK A01 T01340066  RH  064%=      5-min Rain = 0
KFL1 110849Z 04009KT 13/06 A3044 RMK A01 T01330064  RH  063%=      5-min Rain = 0
KFL1 110850Z 05009KT 13/07 A3044 RMK A01 T01340066  RH  063%=      5-min Rain = 0
KFL1 110851Z 04009KT 13/06 A3044 RMK A01 T01330064  RH  063%=      5-min Rain = 0
KFL1 110852Z 04009KT 13/06 A3044 RMK A01 T01330064  RH  063%=      5-min Rain = 0
KFL1 110853Z 05009KT 13/07 A3044 RMK A01 T01340065  RH  063%=      5-min Rain = 0
KFL1 110854Z 05009KT 13/07 A3044 RMK A01 T01340065  RH  063%=      5-min Rain = 0
KFL1 110855Z 05009KT 13/06 A3044 RMK A01 T01330064  RH  063%=      5-min Rain = 0
KFL1 110856Z 05009KT 13/06 A3044 RMK A01 T01330064  RH  063%=      5-min Rain = 0
KFL1 110857Z 04009KT 13/06 A3044 RMK A01 T01330064  RH  063%=      5-min Rain = 0
KFL1 110858Z 04009KT 13/06 A3044 RMK A01 T01330063  RH  062%=      5-min Rain = 0
KFL1 110859Z 04008KT 13/06 A3044 RMK A01 T01340062  RH  062%=      5-min Rain = 0
KFL1 110900Z 04009KT 13/06 A3044 RMK A01 T01340062  RH  062%=      5-min Rain = 0
KFL1 110901Z 04008KT 14/06 A3044 RMK A01 T01350063  RH  062%=      5-min Rain = 0
KFL1 110902Z 05008KT 14/06 A3044 RMK A01 T01350063  RH  062%=      5-min Rain = 0
KFL1 110903Z 04009KT 13/06 A3044 RMK A01 T01340063  RH  062%=      5-min Rain = 0
KFL1 110904Z 05009KT 13/06 A3044 RMK A01 T01340063  RH  062%=      5-min Rain = 0
KFL1 110905Z 04009KT 13/06 A3044 RMK A01 T01320062  RH  062%=      5-min Rain = 0
KFL1 110906Z 04008KT 13/06 A3044 RMK A01 T01330063  RH  063%=      5-min Rain = 0
KFL1 110907Z 04008KT 13/06 A3044 RMK A01 T01320062  RH  062%=      5-min Rain = 0
KFL1 110908Z 04009KT 13/06 A3044 RMK A01 T01320061  RH  062%=      5-min Rain = 0
KFL1 110909Z 04008KT 13/06 A3044 RMK A01 T01330062  RH  062%=      5-min Rain = 0
KFL1 110910Z 04008KT 13/06 A3044 RMK A01 T01330062  RH  062%=      5-min Rain = 0
KFL1 110911Z 04008KT 13/06 A3044 RMK A01 T01320061  RH  062%=      5-min Rain = 0
KFL1 110912Z 04009KT 13/06 A3044 RMK A01 T01340064  RH  062%=      5-min Rain = 0
KFL1 110913Z 04008KT 13/06 A3044 RMK A01 T01330064  RH  063%=      5-min Rain = 0
KFL1 110914Z 04008KT 13/06 A3044 RMK A01 T01320063  RH  063%=      5-min Rain = 0
KFL1 110915Z 04009KT 13/06 A3044 RMK A01 T01330063  RH  063%=      5-min Rain = 0
KFL1 110916Z 04008KT 13/06 A3044 RMK A01 T01330063  RH  063%=      5-min Rain = 0
KFL1 110917Z 04008KT 13/06 A3044 RMK A01 T01330063  RH  063%=      5-min Rain = 0
KFL1 110918Z 04008KT 13/06 A3044 RMK A01 T01330064  RH  063%=      5-min Rain = 0
KFL1 110919Z 04008KT 13/06 A3045 RMK A01 T01320064  RH  063%=      5-min Rain = 0
KFL1 110920Z 04008KT 13/06 A3045 RMK A01 T01320064  RH  063%=      5-min Rain = 0
KFL1 110921Z 04008KT 13/06 A3045 RMK A01 T01310063  RH  063%=      5-min Rain = 0
KFL1 110922Z 05008KT 13/06 A3045 RMK A01 T01310064  RH  064%=      5-min Rain = 0
KFL1 110923Z 05009KT 13/06 A3045 RMK A01 T01300064  RH  064%=      5-min Rain = 0
KFL1 110924Z 04009KT 13/06 A3045 RMK A01 T01290062  RH  064%=      5-min Rain = 0
KFL1 110925Z 04009KT 13/06 A3045 RMK A01 T01290062  RH  064%=      5-min Rain = 0
KFL1 110926Z 04009KT 13/06 A3045 RMK A01 T01290062  RH  064%=      5-min Rain = 0
KFL1 110927Z 04009KT 13/06 A3045 RMK A01 T01290061  RH  064%=      5-min Rain = 0
KFL1 110928Z 04008KT 13/06 A3045 RMK A01 T01290062  RH  063%=      5-min Rain = 0
KFL1 110929Z 04008KT 13/06 A3045 RMK A01 T01290061  RH  063%=      5-min Rain = 0
KFL1 110930Z 04008KT 13/06 A3045 RMK A01 T01310063  RH  064%=      5-min Rain = 0
KFL1 110931Z 04009KT 13/06 A3045 RMK A01 T01300062  RH  064%=      5-min Rain = 0
KFL1 110932Z 04009KT 13/06 A3045 RMK A01 T01290061  RH  064%=      5-min Rain = 0
KFL1 110933Z 04009KT 13/06 A3045 RMK A01 T01290063  RH  064%=      5-min Rain = 0
KFL1 110934Z 04009KT 13/06 A3045 RMK A01 T01280061  RH  064%=      5-min Rain = 0
KFL1 110935Z 04009KT 13/06 A3045 RMK A01 T01300063  RH  064%=      5-min Rain = 0
KFL1 110936Z 04008KT 13/06 A3045 RMK A01 T01290062  RH  064%=      5-min Rain = 0
KFL1 110937Z 04008KT 13/06 A3045 RMK A01 T01290061  RH  063%=      5-min Rain = 0
KFL1 110938Z 04008KT 13/06 A3045 RMK A01 T01300062  RH  063%=      5-min Rain = 0
KFL1 110939Z 03008KT 13/06 A3045 RMK A01 T01310063  RH  063%=      5-min Rain = 0
KFL1 110940Z 03008KT 13/06 A3045 RMK A01 T01300061  RH  063%=      5-min Rain = 0
KFL1 110941Z 03007KT 13/06 A3045 RMK A01 T01320061  RH  062%=      5-min Rain = 0
KFL1 110942Z 03007KT 13/06 A3045 RMK A01 T01330061  RH  062%=      5-min Rain = 0
KFL1 110943Z 03007KT 14/06 A3045 RMK A01 T01350061  RH  061%=      5-min Rain = 0
KFL1 110944Z 04006KT 13/06 A3045 RMK A01 T01340061  RH  061%=      5-min Rain = 0
KFL1 110945Z 04007KT 14/06 A3045 RMK A01 T01350061  RH  061%=      5-min Rain = 0
KFL1 110946Z 03007KT 13/06 A3045 RMK A01 T01340060  RH  061%=      5-min Rain = 0
KFL1 110947Z 03007KT 13/06 A3045 RMK A01 T01340061  RH  061%=      5-min Rain = 0
KFL1 110948Z 04008KT 13/06 A3045 RMK A01 T01340060  RH  061%=      5-min Rain = 0
KFL1 110949Z 04007KT 14/06 A3045 RMK A01 T01350061  RH  061%=      5-min Rain = 0
KFL1 110950Z 04008KT 13/06 A3045 RMK A01 T01340060  RH  061%=      5-min Rain = 0
KFL1 110951Z 03008KT 13/06 A3045 RMK A01 T01340062  RH  062%=      5-min Rain = 0
KFL1 110952Z 03008KT 13/06 A3045 RMK A01 T01330061  RH  062%=      5-min Rain = 0
KFL1 110953Z 03006KT 13/06 A3045 RMK A01 T01340062  RH  061%=      5-min Rain = 0
KFL1 110954Z 03006KT 13/06 A3045 RMK A01 T01340060  RH  061%=      5-min Rain = 0
KFL1 110955Z 04005KT 13/06 A3045 RMK A01 T01340060  RH  061%=      5-min Rain = 0
KFL1 110956Z 04005KT 14/06 A3045 RMK A01 T01350062  RH  061%=      5-min Rain = 0
KFL1 110957Z 04006KT 13/06 A3045 RMK A01 T01340062  RH  062%=      5-min Rain = 0
KFL1 110958Z 03007KT 13/06 A3045 RMK A01 T01330062  RH  062%=      5-min Rain = 0
KFL1 110959Z 04006KT 13/06 A3045 RMK A01 T01310062  RH  063%=      5-min Rain = 0
KFL1 111000Z 04006KT 13/06 A3045 RMK A01 T01310063  RH  063%=      5-min Rain = 0
KFL1 111001Z 04006KT 13/06 A3045 RMK A01 T01290063  RH  064%=      5-min Rain = 0
KFL1 111002Z 04007KT 13/06 A3045 RMK A01 T01280062  RH  064%=      5-min Rain = 0
KFL1 111003Z 04007KT 13/06 A3045 RMK A01 T01270062  RH  065%=      5-min Rain = 0
KFL1 111004Z 03007KT 13/06 A3045 RMK A01 T01270063  RH  065%=      5-min Rain = 0
KFL1 111005Z 03007KT 13/06 A3045 RMK A01 T01280063  RH  065%=      5-min Rain = 0
KFL1 111006Z 04007KT 13/06 A3045 RMK A01 T01270063  RH  065%=      5-min Rain = 0
KFL1 111007Z 04007KT 13/06 A3045 RMK A01 T01270063  RH  065%=      5-min Rain = 0
KFL1 111008Z 04007KT 13/06 A3045 RMK A01 T01260063  RH  065%=      5-min Rain = 0
KFL1 111009Z 04007KT 13/06 A3045 RMK A01 T01260064  RH  066%=      5-min Rain = 0
KFL1 111010Z 04008KT 13/06 A3045 RMK A01 T01250063  RH  066%=      5-min Rain = 0
KFL1 111011Z 04008KT 13/06 A3045 RMK A01 T01250063  RH  066%=      5-min Rain = 0
KFL1 111012Z 04008KT 12/06 A3045 RMK A01 T01230062  RH  066%=      5-min Rain = 0
KFL1 111013Z 04008KT 12/06 A3045 RMK A01 T01230062  RH  066%=      5-min Rain = 0
KFL1 111014Z 04007KT 12/06 A3045 RMK A01 T01240063  RH  066%=      5-min Rain = 0
KFL1 111015Z 04007KT 12/06 A3045 RMK A01 T01230063  RH  067%=      5-min Rain = 0
KFL1 111016Z 04007KT 12/06 A3045 RMK A01 T01230063  RH  067%=      5-min Rain = 0
KFL1 111017Z 04007KT 12/06 A3045 RMK A01 T01230064  RH  067%=      5-min Rain = 0
KFL1 111018Z 04008KT 12/06 A3045 RMK A01 T01210062  RH  067%=      5-min Rain = 0
KFL1 111019Z 04008KT 12/06 A3045 RMK A01 T01210062  RH  067%=      5-min Rain = 0
KFL1 111020Z 04007KT 12/06 A3045 RMK A01 T01220063  RH  067%=      5-min Rain = 0
KFL1 111021Z 05007KT 12/06 A3045 RMK A01 T01220063  RH  067%=      5-min Rain = 0
KFL1 111022Z 04008KT 12/06 A3045 RMK A01 T01220063  RH  067%=      5-min Rain = 0
KFL1 111023Z 04008KT 12/06 A3045 RMK A01 T01200061  RH  067%=      5-min Rain = 0
KFL1 111024Z 05009KT 12/06 A3045 RMK A01 T01210061  RH  067%=      5-min Rain = 0
KFL1 111025Z 04008KT 12/06 A3045 RMK A01 T01220063  RH  067%=      5-min Rain = 0
KFL1 111026Z 05008KT 12/06 A3045 RMK A01 T01220062  RH  067%=      5-min Rain = 0
KFL1 111027Z 04008KT 12/06 A3045 RMK A01 T01210062  RH  067%=      5-min Rain = 0
KFL1 111028Z 05007KT 12/06 A3045 RMK A01 T01210062  RH  067%=      5-min Rain = 0
KFL1 111029Z 05007KT 12/06 A3045 RMK A01 T01220063  RH  067%=      5-min Rain = 0
KFL1 111030Z 05008KT 12/06 A3045 RMK A01 T01200062  RH  067%=      5-min Rain = 0
KFL1 111031Z 04008KT 12/06 A3045 RMK A01 T01210063  RH  068%=      5-min Rain = 0
KFL1 111032Z 05008KT 12/06 A3045 RMK A01 T01190062  RH  068%=      5-min Rain = 0
KFL1 111033Z 05007KT 12/06 A3045 RMK A01 T01190062  RH  068%=      5-min Rain = 0
KFL1 111034Z 05009KT 12/06 A3045 RMK A01 T01210063  RH  068%=      5-min Rain = 0
KFL1 111035Z 05008KT 12/06 A3045 RMK A01 T01200063  RH  068%=      5-min Rain = 0
KFL1 111036Z 05009KT 12/06 A3045 RMK A01 T01190061  RH  068%=      5-min Rain = 0
KFL1 111037Z 05008KT 12/06 A3045 RMK A01 T01200061  RH  067%=      5-min Rain = 0
KFL1 111038Z 05008KT 12/06 A3045 RMK A01 T01200061  RH  067%=      5-min Rain = 0
KFL1 111039Z 05009KT 12/06 A3045 RMK A01 T01210061  RH  067%=      5-min Rain = 0
KFL1 111040Z 05009KT 12/06 A3045 RMK A01 T01200060  RH  067%=      5-min Rain = 0
KFL1 111041Z 05008KT 12/06 A3045 RMK A01 T01210060  RH  066%=      5-min Rain = 0
KFL1 111042Z 05008KT 12/06 A3045 RMK A01 T01210060  RH  066%=      5-min Rain = 0
KFL1 111043Z 04008KT 12/06 A3045 RMK A01 T01220061  RH  066%=      5-min Rain = 0
KFL1 111044Z 04007KT 12/06 A3045 RMK A01 T01210061  RH  067%=      5-min Rain = 0
KFL1 111045Z 04008KT 12/06 A3045 RMK A01 T01210062  RH  067%=      5-min Rain = 0
KFL1 111046Z 04008KT 12/06 A3045 RMK A01 T01220063  RH  067%=      5-min Rain = 0
KFL1 111047Z 04009KT 12/06 A3045 RMK A01 T01210061  RH  067%=      5-min Rain = 0
KFL1 111048Z 04008KT 12/06 A3045 RMK A01 T01210062  RH  067%=      5-min Rain = 0
KFL1 111049Z 04009KT 12/06 A3045 RMK A01 T01210061  RH  067%=      5-min Rain = 0
KFL1 111050Z 04008KT 12/06 A3045 RMK A01 T01220062  RH  067%=      5-min Rain = 0
KFL1 111051Z 04008KT 12/06 A3045 RMK A01 T01230063  RH  067%=      5-min Rain = 0
KFL1 111052Z 04008KT 12/06 A3045 RMK A01 T01240063  RH  067%=      5-min Rain = 0
KFL1 111053Z 04009KT 12/06 A3045 RMK A01 T01230063  RH  067%=      5-min Rain = 0
KFL1 111054Z 04008KT 12/06 A3045 RMK A01 T01230062  RH  067%=      5-min Rain = 0
KFL1 111055Z 04008KT 12/06 A3045 RMK A01 T01220062  RH  067%=      5-min Rain = 0
KFL1 111056Z 04008KT 12/06 A3045 RMK A01 T01220062  RH  067%=      5-min Rain = 0
KFL1 111057Z 04008KT 12/06 A3045 RMK A01 T01230063  RH  067%=      5-min Rain = 0
KFL1 111058Z 03009KT 12/06 A3045 RMK A01 T01220062  RH  067%=      5-min Rain = 0
KFL1 111059Z 04008KT 12/06 A3045 RMK A01 T01240063  RH  067%=      5-min Rain = 0
KFL1 111100Z 04008KT 12/06 A3045 RMK A01 T01230062  RH  066%=      5-min Rain = 0
KFL1 111101Z 04008KT 12/06 A3045 RMK A01 T01230062  RH  066%=      5-min Rain = 0
KFL1 111102Z 03008KT 12/06 A3045 RMK A01 T01230061  RH  066%=      5-min Rain = 0
KFL1 111103Z 04007KT 12/06 A3045 RMK A01 T01240061  RH  065%=      5-min Rain = 0
KFL1 111104Z 03007KT 13/06 A3045 RMK A01 T01250062  RH  065%=      5-min Rain = 0
KFL1 111105Z 03007KT 13/06 A3045 RMK A01 T01250061  RH  065%=      5-min Rain = 0
KFL1 111106Z 03008KT 13/06 A3045 RMK A01 T01260061  RH  065%=      5-min Rain = 0
KFL1 111107Z 03008KT 13/06 A3045 RMK A01 T01250060  RH  065%=      5-min Rain = 0
KFL1 111108Z 03008KT 13/06 A3045 RMK A01 T01270062  RH  064%=      5-min Rain = 0
KFL1 111109Z 03008KT 13/06 A3045 RMK A01 T01270061  RH  064%=      5-min Rain = 0
KFL1 111110Z 03008KT 13/06 A3045 RMK A01 T01290061  RH  064%=      5-min Rain = 0
KFL1 111111Z 03007KT 13/06 A3045 RMK A01 T01310062  RH  063%=      5-min Rain = 0
KFL1 111112Z 03007KT 13/06 A3045 RMK A01 T01300061  RH  063%=      5-min Rain = 0
KFL1 111113Z 03008KT 13/06 A3045 RMK A01 T01300062  RH  063%=      5-min Rain = 0
KFL1 111114Z 03007KT 13/06 A3045 RMK A01 T01290063  RH  064%=      5-min Rain = 0
KFL1 111115Z 03006KT 13/06 A3045 RMK A01 T01280064  RH  065%=      5-min Rain = 0
KFL1 111116Z 03006KT 12/06 A3045 RMK A01 T01240063  RH  066%=      5-min Rain = 0
KFL1 111117Z 03006KT 12/06 A3045 RMK A01 T01220063  RH  067%=      5-min Rain = 0
KFL1 111118Z 04007KT 12/06 A3045 RMK A01 T01220062  RH  067%=      5-min Rain = 0
KFL1 111119Z 04008KT 12/06 A3045 RMK A01 T01210061  RH  067%=      5-min Rain = 0
KFL1 111120Z 05008KT 12/06 A3045 RMK A01 T01220062  RH  067%=      5-min Rain = 0
KFL1 111121Z 04008KT 12/06 A3045 RMK A01 T01220063  RH  067%=      5-min Rain = 0
KFL1 111122Z 04008KT 12/06 A3046 RMK A01 T01230064  RH  067%=      5-min Rain = 0
KFL1 111123Z 05008KT 12/06 A3046 RMK A01 T01220064  RH  067%=      5-min Rain = 0
KFL1 111124Z 04008KT 12/06 A3046 RMK A01 T01220064  RH  068%=      5-min Rain = 0
KFL1 111125Z 04008KT 12/06 A3046 RMK A01 T01210063  RH  068%=      5-min Rain = 0
KFL1 111126Z 04008KT 12/06 A3046 RMK A01 T01210063  RH  068%=      5-min Rain = 0
KFL1 111127Z 05009KT 12/06 A3046 RMK A01 T01210063  RH  067%=      5-min Rain = 0
KFL1 111128Z 04009KT 12/06 A3046 RMK A01 T01210063  RH  068%=      5-min Rain = 0
KFL1 111129Z 04008KT 12/06 A3046 RMK A01 T01200062  RH  068%=      5-min Rain = 0
KFL1 111130Z 04009KT 12/06 A3046 RMK A01 T01210062  RH  067%=      5-min Rain = 0
KFL1 111131Z 04009KT 12/06 A3046 RMK A01 T01220062  RH  067%=      5-min Rain = 0
KFL1 111132Z 03009KT 12/06 A3046 RMK A01 T01230062  RH  066%=      5-min Rain = 0
KFL1 111133Z 04008KT 13/06 A3046 RMK A01 T01250064  RH  066%=      5-min Rain = 0
KFL1 111134Z 04008KT 12/06 A3046 RMK A01 T01240062  RH  066%=      5-min Rain = 0
KFL1 111135Z 04008KT 12/06 A3046 RMK A01 T01240062  RH  066%=      5-min Rain = 0
KFL1 111136Z 04008KT 13/06 A3046 RMK A01 T01250064  RH  066%=      5-min Rain = 0
KFL1 111137Z 04008KT 13/07 A3046 RMK A01 T01260065  RH  066%=      5-min Rain = 0
KFL1 111138Z 04008KT 12/06 A3046 RMK A01 T01240063  RH  066%=      5-min Rain = 0
KFL1 111139Z 04008KT 12/06 A3046 RMK A01 T01240064  RH  067%=      5-min Rain = 0
KFL1 111140Z 04009KT 12/06 A3046 RMK A01 T01240064  RH  067%=      5-min Rain = 0
KFL1 111141Z 04009KT 12/06 A3046 RMK A01 T01230062  RH  066%=      5-min Rain = 0
KFL1 111142Z 04008KT 12/06 A3046 RMK A01 T01240062  RH  066%=      5-min Rain = 0
KFL1 111143Z 04008KT 12/06 A3046 RMK A01 T01230062  RH  066%=      5-min Rain = 0
KFL1 111144Z 04009KT 12/06 A3046 RMK A01 T01240062  RH  066%=      5-min Rain = 0
KFL1 111145Z 04009KT 12/06 A3046 RMK A01 T01240063  RH  066%=      5-min Rain = 0
KFL1 111146Z 04010KT 12/06 A3046 RMK A01 T01240061  RH  066%=      5-min Rain = 0
KFL1 111147Z 04009KT 13/06 A3046 RMK A01 T01250062  RH  066%=      5-min Rain = 0
KFL1 111148Z 04009KT 13/06 A3046 RMK A01 T01250063  RH  066%=      5-min Rain = 0
KFL1 111149Z 04008KT 13/06 A3046 RMK A01 T01260063  RH  065%=      5-min Rain = 0
KFL1 111150Z 04008KT 13/06 A3046 RMK A01 T01260063  RH  065%=      5-min Rain = 0
KFL1 111151Z 04008KT 13/06 A3046 RMK A01 T01260063  RH  065%=      5-min Rain = 0
KFL1 111152Z 03009KT 13/06 A3046 RMK A01 T01250062  RH  066%=      5-min Rain = 0
KFL1 111153Z 03008KT 13/06 A3046 RMK A01 T01260063  RH  065%=      5-min Rain = 0
KFL1 111154Z 03009KT 13/06 A3046 RMK A01 T01280064  RH  065%=      5-min Rain = 0
KFL1 111155Z 03008KT 13/06 A3046 RMK A01 T01270062  RH  065%=      5-min Rain = 0
KFL1 111156Z 04008KT 13/06 A3046 RMK A01 T01280062  RH  064%=      5-min Rain = 0
KFL1 111157Z 04008KT 13/06 A3046 RMK A01 T01290063  RH  064%=      5-min Rain = 0
KFL1 111158Z 04008KT 13/06 A3046 RMK A01 T01290064  RH  064%=      5-min Rain = 0
KFL1 111159Z 04008KT 13/06 A3046 RMK A01 T01290063  RH  064%=      5-min Rain = 0
KFL1 111200Z 04008KT 13/06 A3046 RMK A01 T01290063  RH  064%=      5-min Rain = 0
KFL1 111201Z 04007KT 13/06 A3046 RMK A01 T01290062  RH  064%=      5-min Rain = 0
KFL1 111202Z 04008KT 13/06 A3046 RMK A01 T01290063  RH  064%=      5-min Rain = 0
KFL1 111203Z 03008KT 13/06 A3046 RMK A01 T01280062  RH  064%=      5-min Rain = 0
KFL1 111204Z 03008KT 13/06 A3046 RMK A01 T01280062  RH  064%=      5-min Rain = 0
KFL1 111205Z 03008KT 13/06 A3046 RMK A01 T01280062  RH  064%=      5-min Rain = 0
KFL1 111206Z 03008KT 13/06 A3046 RMK A01 T01290063  RH  064%=      5-min Rain = 0
KFL1 111207Z 03008KT 13/06 A3046 RMK A01 T01290062  RH  064%=      5-min Rain = 0
KFL1 111208Z 03008KT 13/06 A3046 RMK A01 T01310063  RH  064%=      5-min Rain = 0
KFL1 111209Z 03008KT 13/06 A3046 RMK A01 T01310062  RH  063%=      5-min Rain = 0
KFL1 111210Z 03008KT 13/06 A3046 RMK A01 T01340063  RH  062%=      5-min Rain = 0
KFL1 111211Z 03008KT 14/06 A3046 RMK A01 T01350063  RH  062%=      5-min Rain = 0
KFL1 111212Z 03007KT 14/06 A3046 RMK A01 T01350061  RH  061%=      5-min Rain = 0
KFL1 111213Z 03007KT 13/06 A3046 RMK A01 T01340062  RH  061%=      5-min Rain = 0
KFL1 111214Z 03006KT 14/06 A3046 RMK A01 T01350063  RH  062%=      5-min Rain = 0
KFL1 111215Z 03006KT 13/06 A3046 RMK A01 T01320062  RH  062%=      5-min Rain = 0
KFL1 111216Z 03006KT 13/06 A3046 RMK A01 T01320062  RH  062%=      5-min Rain = 0
KFL1 111217Z 03007KT 13/06 A3046 RMK A01 T01310061  RH  063%=      5-min Rain = 0
KFL1 111218Z 04007KT 13/06 A3046 RMK A01 T01300061  RH  063%=      5-min Rain = 0
KFL1 111219Z 04007KT 13/06 A3046 RMK A01 T01290062  RH  064%=      5-min Rain = 0
KFL1 111220Z 03008KT 13/06 A3046 RMK A01 T01280064  RH  065%=      5-min Rain = 0
KFL1 111221Z 03008KT 13/06 A3046 RMK A01 T01270064  RH  066%=      5-min Rain = 0
KFL1 111222Z 03007KT 13/06 A3046 RMK A01 T01250062  RH  066%=      5-min Rain = 0
KFL1 111223Z 03008KT 13/06 A3046 RMK A01 T01260064  RH  066%=      5-min Rain = 0
KFL1 111224Z 04007KT 13/06 A3046 RMK A01 T01250064  RH  066%=      5-min Rain = 0
KFL1 111225Z 04007KT 13/06 A3046 RMK A01 T01250064  RH  066%=      5-min Rain = 0
KFL1 111226Z 04007KT 12/06 A3046 RMK A01 T01240064  RH  067%=      5-min Rain = 0
KFL1 111227Z 03007KT 12/07 A3046 RMK A01 T01240065  RH  067%=      5-min Rain = 0
KFL1 111228Z 04007KT 12/07 A3046 RMK A01 T01230065  RH  068%=      5-min Rain = 0
KFL1 111229Z 04007KT 12/06 A3046 RMK A01 T01220064  RH  068%=      5-min Rain = 0
KFL1 111230Z 04007KT 12/07 A3046 RMK A01 T01210065  RH  068%=      5-min Rain = 0
KFL1 111231Z 04007KT 12/07 A3046 RMK A01 T01210065  RH  069%=      5-min Rain = 0
KFL1 111232Z 04007KT 12/07 A3046 RMK A01 T01210066  RH  069%=      5-min Rain = 0
KFL1 111233Z 04008KT 12/07 A3046 RMK A01 T01200065  RH  069%=      5-min Rain = 0
KFL1 111234Z 05007KT 12/06 A3047 RMK A01 T01200064  RH  069%=      5-min Rain = 0
KFL1 111235Z 05008KT 12/07 A3047 RMK A01 T01200065  RH  069%=      5-min Rain = 0
KFL1 111236Z 04009KT 12/06 A3047 RMK A01 T01190064  RH  069%=      5-min Rain = 0
KFL1 111237Z 04008KT 12/07 A3047 RMK A01 T01200065  RH  069%=      5-min Rain = 0
KFL1 111238Z 04008KT 12/07 A3047 RMK A01 T01210065  RH  069%=      5-min Rain = 0
KFL1 111239Z 04009KT 12/06 A3047 RMK A01 T01190064  RH  069%=      5-min Rain = 0
KFL1 111240Z 04009KT 12/06 A3047 RMK A01 T01200064  RH  069%=      5-min Rain = 0
KFL1 111241Z 04009KT 12/06 A3047 RMK A01 T01210064  RH  068%=      5-min Rain = 0
KFL1 111242Z 03008KT 12/07 A3047 RMK A01 T01220065  RH  068%=      5-min Rain = 0
KFL1 111243Z 03009KT 12/06 A3047 RMK A01 T01220064  RH  068%=      5-min Rain = 0
KFL1 111244Z 03009KT 12/06 A3047 RMK A01 T01220063  RH  068%=      5-min Rain = 0
KFL1 111245Z 04008KT 12/06 A3047 RMK A01 T01230064  RH  067%=      5-min Rain = 0
KFL1 111246Z 04009KT 13/06 A3047 RMK A01 T01250064  RH  067%=      5-min Rain = 0
KFL1 111247Z 04008KT 13/07 A3047 RMK A01 T01270065  RH  066%=      5-min Rain = 0
KFL1 111248Z 04007KT 13/07 A3047 RMK A01 T01290065  RH  065%=      5-min Rain = 0
KFL1 111249Z 04008KT 13/07 A3047 RMK A01 T01300065  RH  065%=      5-min Rain = 0
KFL1 111250Z 04008KT 13/07 A3047 RMK A01 T01300066  RH  065%=      5-min Rain = 0
KFL1 111251Z 04008KT 13/07 A3047 RMK A01 T01300066  RH  065%=      5-min Rain = 0
KFL1 111252Z 04007KT 13/07 A3047 RMK A01 T01300065  RH  065%=      5-min Rain = 0
KFL1 111253Z 04007KT 13/06 A3047 RMK A01 T01290064  RH  065%=      5-min Rain = 0
KFL1 111254Z 04008KT 13/07 A3047 RMK A01 T01300065  RH  065%=      5-min Rain = 0
KFL1 111255Z 04008KT 13/07 A3047 RMK A01 T01300065  RH  064%=      5-min Rain = 0
KFL1 111256Z 05007KT 13/07 A3047 RMK A01 T01300065  RH  065%=      5-min Rain = 0
KFL1 111257Z 05008KT 13/07 A3047 RMK A01 T01300067  RH  066%=      5-min Rain = 0
KFL1 111258Z 05007KT 13/07 A3047 RMK A01 T01280066  RH  066%=      5-min Rain = 0
KFL1 111259Z 04007KT 13/07 A3047 RMK A01 T01290067  RH  066%=      5-min Rain = 0
KFL1 111300Z 04008KT 13/07 A3047 RMK A01 T01270066  RH  066%=      5-min Rain = 0
KFL1 111301Z 04008KT 13/07 A3047 RMK A01 T01280065  RH  066%=      5-min Rain = 0
KFL1 111302Z 04008KT 13/07 A3047 RMK A01 T01290066  RH  066%=      5-min Rain = 0
KFL1 111303Z 04009KT 13/07 A3047 RMK A01 T01300066  RH  065%=      5-min Rain = 0
KFL1 111304Z 03008KT 13/07 A3047 RMK A01 T01300065  RH  064%=      5-min Rain = 0
KFL1 111305Z 04009KT 13/06 A3047 RMK A01 T01320064  RH  064%=      5-min Rain = 0
KFL1 111306Z 03008KT 14/07 A3047 RMK A01 T01350065  RH  063%=      5-min Rain = 0
KFL1 111307Z 03008KT 14/07 A3047 RMK A01 T01370066  RH  062%=      5-min Rain = 0
KFL1 111308Z 04008KT 14/07 A3047 RMK A01 T01380065  RH  061%=      5-min Rain = 0
KFL1 111309Z 04008KT 14/07 A3047 RMK A01 T01400065  RH  061%=      5-min Rain = 0
KFL1 111310Z 04007KT 14/06 A3047 RMK A01 T01410064  RH  060%=      5-min Rain = 0
KFL1 111311Z 04008KT 14/07 A3047 RMK A01 T01430065  RH  059%=      5-min Rain = 0
KFL1 111312Z 04007KT 15/07 A3047 RMK A01 T01450065  RH  059%=      5-min Rain = 0
KFL1 111313Z 04007KT 15/06 A3047 RMK A01 T01460064  RH  058%=      5-min Rain = 0
KFL1 111314Z 03007KT 15/06 A3048 RMK A01 T01470064  RH  058%=      5-min Rain = 0
KFL1 111315Z 04006KT 15/06 A3048 RMK A01 T01480064  RH  057%=      5-min Rain = 0
KFL1 111316Z 03006KT 15/07 A3048 RMK A01 T01490065  RH  057%=      5-min Rain = 0
KFL1 111317Z 03007KT 15/07 A3048 RMK A01 T01500066  RH  057%=      5-min Rain = 0
KFL1 111318Z 04006KT 15/07 A3048 RMK A01 T01500065  RH  057%=      5-min Rain = 0
KFL1 111319Z 04006KT 15/07 A3048 RMK A01 T01490065  RH  057%=      5-min Rain = 0
KFL1 111320Z 04007KT 15/07 A3048 RMK A01 T01500066  RH  057%=      5-min Rain = 0
KFL1 111321Z 04008KT 15/07 A3048 RMK A01 T01500066  RH  057%=      5-min Rain = 0
KFL1 111322Z 04007KT 15/07 A3048 RMK A01 T01510067  RH  057%=      5-min Rain = 0
KFL1 111323Z 04007KT 15/07 A3048 RMK A01 T01520067  RH  057%=      5-min Rain = 0
KFL1 111324Z 04007KT 15/07 A3048 RMK A01 T01520067  RH  057%=      5-min Rain = 0
KFL1 111325Z 04006KT 15/07 A3048 RMK A01 T01530067  RH  056%=      5-min Rain = 0
KFL1 111326Z 04006KT 16/07 A3048 RMK A01 T01550067  RH  056%=      5-min Rain = 0
KFL1 111327Z 04007KT 15/07 A3048 RMK A01 T01540067  RH  056%=      5-min Rain = 0
KFL1 111328Z 03007KT 16/07 A3048 RMK A01 T01560069  RH  056%=      5-min Rain = 0
KFL1 111329Z 04006KT 16/07 A3048 RMK A01 T01560069  RH  056%=      5-min Rain = 0
KFL1 111330Z 04007KT 16/07 A3048 RMK A01 T01580072  RH  056%=      5-min Rain = 0
KFL1 111331Z 05007KT 16/07 A3048 RMK A01 T01570071  RH  056%=      5-min Rain = 0
KFL1 111332Z 04007KT 16/07 A3048 RMK A01 T01590073  RH  057%=      5-min Rain = 0
KFL1 111333Z 04007KT 16/07 A3048 RMK A01 T01580073  RH  057%=      5-min Rain = 0
KFL1 111334Z 04006KT 16/07 A3048 RMK A01 T01580073  RH  057%=      5-min Rain = 0
KFL1 111335Z 04007KT 16/07 A3048 RMK A01 T01570072  RH  057%=      5-min Rain = 0
KFL1 111336Z 04007KT 16/07 A3048 RMK A01 T01570073  RH  057%=      5-min Rain = 0
KFL1 111337Z 04007KT 16/07 A3048 RMK A01 T01580074  RH  057%=      5-min Rain = 0
KFL1 111338Z 04007KT 16/07 A3048 RMK A01 T01590074  RH  057%=      5-min Rain = 0
KFL1 111339Z 04007KT 16/07 A3048 RMK A01 T01580072  RH  056%=      5-min Rain = 0
KFL1 111340Z 05007KT 16/07 A3048 RMK A01 T01610073  RH  056%=      5-min Rain = 0
KFL1 111341Z 04007KT 16/07 A3048 RMK A01 T01620074  RH  056%=      5-min Rain = 0
KFL1 111342Z 04007KT 16/08 A3048 RMK A01 T01640076  RH  056%=      5-min Rain = 0
KFL1 111343Z 05007KT 16/08 A3048 RMK A01 T01640076  RH  056%=      5-min Rain = 0
KFL1 111344Z 04007KT 16/08 A3048 RMK A01 T01640075  RH  056%=      5-min Rain = 0
KFL1 111345Z 05007KT 17/08 A3048 RMK A01 T01650077  RH  056%=      5-min Rain = 0
KFL1 111346Z 05007KT 17/08 A3048 RMK A01 T01660078  RH  056%=      5-min Rain = 0
KFL1 111347Z 04006KT 17/08 A3048 RMK A01 T01670078  RH  056%=      5-min Rain = 0
KFL1 111348Z 05006KT 17/08 A3048 RMK A01 T01680078  RH  055%=      5-min Rain = 0
KFL1 111349Z 05007KT 17/08 A3048 RMK A01 T01700078  RH  055%=      5-min Rain = 0
KFL1 111350Z 06006KT 17/08 A3048 RMK A01 T01700078  RH  055%=      5-min Rain = 0
KFL1 111351Z 05006KT 17/08 A3048 RMK A01 T01710078  RH  054%=      5-min Rain = 0
KFL1 111352Z 04006KT 17/08 A3048 RMK A01 T01710078  RH  054%=      5-min Rain = 0
KFL1 111353Z 05005KT 17/08 A3048 RMK A01 T01720080  RH  054%=      5-min Rain = 0
KFL1 111354Z 05007KT 17/08 A3048 RMK A01 T01730079  RH  054%=      5-min Rain = 0
KFL1 111355Z 05005KT 17/08 A3048 RMK A01 T01730079  RH  054%=      5-min Rain = 0
KFL1 111356Z 05006KT 17/08 A3048 RMK A01 T01730080  RH  054%=      5-min Rain = 0
KFL1 111357Z 05004KT 18/08 A3048 RMK A01 T01750082  RH  054%=      5-min Rain = 0
KFL1 111358Z 05005KT 18/08 A3048 RMK A01 T01750082  RH  054%=      5-min Rain = 0
KFL1 111359Z 05006KT 18/08 A3048 RMK A01 T01760082  RH  054%=      5-min Rain = 0
KFL1 111400Z 06005KT 18/08 A3048 RMK A01 T01770083  RH  054%=      5-min Rain = 0
KFL1 111401Z 06003KT 18/08 A3048 RMK A01 T01770084  RH  054%=      5-min Rain = 0
KFL1 111402Z 06005KT 18/08 A3048 RMK A01 T01790084  RH  054%=      5-min Rain = 0
KFL1 111403Z 06005KT 18/08 A3048 RMK A01 T01800080  RH  052%=      5-min Rain = 0
KFL1 111404Z 06004KT 18/08 A3048 RMK A01 T01810081  RH  052%=      5-min Rain = 0
KFL1 111405Z 07005KT 18/08 A3048 RMK A01 T01820081  RH  052%=      5-min Rain = 0
KFL1 111406Z 06004KT 18/08 A3048 RMK A01 T01830078  RH  050%=      5-min Rain = 0
KFL1 111407Z 06005KT 18/08 A3048 RMK A01 T01840078  RH  050%=      5-min Rain = 0
KFL1 111408Z 07005KT 19/08 A3048 RMK A01 T01850079  RH  050%=      5-min Rain = 0
KFL1 111409Z 06004KT 19/08 A3048 RMK A01 T01860078  RH  049%=      5-min Rain = 0
KFL1 111410Z 07005KT 19/08 A3048 RMK A01 T01850076  RH  049%=      5-min Rain = 0
KFL1 111411Z 05005KT 19/08 A3048 RMK A01 T01860075  RH  048%=      5-min Rain = 0
KFL1 111412Z 05005KT 19/07 A3048 RMK A01 T01860074  RH  048%=      5-min Rain = 0
KFL1 111413Z 07005KT 19/08 A3048 RMK A01 T01870077  RH  049%=      5-min Rain = 0
KFL1 111414Z 07004KT 19/08 A3048 RMK A01 T01880076  RH  048%=      5-min Rain = 0
KFL1 111415Z 07005KT 19/08 A3048 RMK A01 T01890078  RH  049%=      5-min Rain = 0
KFL1 111416Z 07005KT 19/08 A3048 RMK A01 T01880077  RH  049%=      5-min Rain = 0
KFL1 111417Z 07006KT 19/08 A3048 RMK A01 T01900084  RH  050%=      5-min Rain = 0
KFL1 111418Z 07005KT 19/08 A3048 RMK A01 T01900075  RH  047%=      5-min Rain = 0
KFL1 111419Z 06004KT 19/08 A3048 RMK A01 T01910076  RH  047%=      5-min Rain = 0
KFL1 111420Z 07004KT 19/08 A3048 RMK A01 T01920075  RH  047%=      5-min Rain = 0
KFL1 111421Z 07005KT 19/07 A3048 RMK A01 T01910074  RH  047%=      5-min Rain = 0
KFL1 111422Z 07004KT 19/08 A3048 RMK A01 T01920077  RH  047%=      5-min Rain = 0
KFL1 111423Z 06004KT 19/07 A3048 RMK A01 T01930074  RH  046%=      5-min Rain = 0
KFL1 111424Z 07005KT 19/08 A3048 RMK A01 T01930082  RH  048%=      5-min Rain = 0
KFL1 111425Z 07005KT 19/08 A3048 RMK A01 T01940080  RH  048%=      5-min Rain = 0
KFL1 111426Z 07003KT 20/08 A3048 RMK A01 T01950080  RH  047%=      5-min Rain = 0
KFL1 111427Z 07004KT 19/08 A3048 RMK A01 T01940076  RH  046%=      5-min Rain = 0
KFL1 111428Z 07005KT 20/08 A3048 RMK A01 T01960082  RH  048%=      5-min Rain = 0
KFL1 111429Z 07004KT 20/08 A3048 RMK A01 T01950081  RH  048%=      5-min Rain = 0
KFL1 111430Z 07005KT 20/08 A3048 RMK A01 T01970081  RH  047%=      5-min Rain = 0
KFL1 111431Z 07004KT 20/08 A3048 RMK A01 T01960078  RH  046%=      5-min Rain = 0
KFL1 111432Z 07003KT 20/08 A3048 RMK A01 T01970077  RH  046%=      5-min Rain = 0
KFL1 111433Z 07006KT 20/07 A3048 RMK A01 T01970074  RH  045%=      5-min Rain = 0
KFL1 111434Z 08005KT 20/07 A3048 RMK A01 T01970070  RH  044%=      5-min Rain = 0
KFL1 111435Z 08006KT 20/07 A3048 RMK A01 T01970071  RH  044%=      5-min Rain = 0
KFL1 111436Z 07004KT 20/07 A3048 RMK A01 T01970070  RH  044%=      5-min Rain = 0
KFL1 111437Z 07006KT 20/07 A3048 RMK A01 T01960073  RH  045%=      5-min Rain = 0
KFL1 111438Z 08004KT 20/07 A3048 RMK A01 T01960069  RH  044%=      5-min Rain = 0
KFL1 111439Z 07004KT 20/07 A3048 RMK A01 T01950069  RH  044%=      5-min Rain = 0
KFL1 111440Z 07005KT 20/07 A3048 RMK A01 T01960070  RH  044%=      5-min Rain = 0
KFL1 111441Z 06004KT 20/07 A3048 RMK A01 T01970068  RH  043%=      5-min Rain = 0
KFL1 111442Z 07004KT 20/07 A3048 RMK A01 T01960071  RH  044%=      5-min Rain = 0
KFL1 111443Z 07004KT 20/08 A3048 RMK A01 T01970076  RH  046%=      5-min Rain = 0
KFL1 111444Z 08004KT 20/08 A3048 RMK A01 T01980079  RH  046%=      5-min Rain = 0
KFL1 111445Z 07008KT 20/08 A3048 RMK A01 T02000075  RH  045%=      5-min Rain = 0
KFL1 111446Z 07006KT 20/07 A3048 RMK A01 T01990072  RH  044%=      5-min Rain = 0
KFL1 111447Z 07006KT 20/07 A3048 RMK A01 T01990070  RH  043%=      5-min Rain = 0
KFL1 111448Z 07006KT 20/07 A3048 RMK A01 T01990068  RH  043%=      5-min Rain = 0
KFL1 111449Z 08006KT 20/07 A3048 RMK A01 T01980069  RH  043%=      5-min Rain = 0
KFL1 111450Z 07006KT 20/07 A3048 RMK A01 T01980070  RH  043%=      5-min Rain = 0
KFL1 111451Z 07006KT 20/07 A3048 RMK A01 T01990070  RH  043%=      5-min Rain = 0
KFL1 111452Z 06007KT 20/07 A3048 RMK A01 T01970069  RH  043%=      5-min Rain = 0
KFL1 111453Z 07006KT 20/07 A3048 RMK A01 T01980072  RH  044%=      5-min Rain = 0
KFL1 111454Z 07007KT 20/07 A3048 RMK A01 T01990073  RH  044%=      5-min Rain = 0
KFL1 111455Z 06005KT 20/08 A3049 RMK A01 T02000080  RH  046%=      5-min Rain = 0
KFL1 111456Z 07005KT 20/08 A3049 RMK A01 T02000083  RH  047%=      5-min Rain = 0
KFL1 111457Z 07006KT 20/08 A3049 RMK A01 T02010080  RH  046%=      5-min Rain = 0
KFL1 111458Z 06003KT 20/08 A3049 RMK A01 T02020082  RH  046%=      5-min Rain = 0
KFL1 111459Z 09004KT 20/08 A3049 RMK A01 T02030082  RH  046%=      5-min Rain = 0
KFL1 111500Z 07004KT 20/07 A3049 RMK A01 T02030073  RH  043%=      5-min Rain = 0
KFL1 111501Z 08007KT 20/07 A3049 RMK A01 T02040074  RH  043%=      5-min Rain = 0
KFL1 111502Z 08006KT 20/07 A3049 RMK A01 T02040074  RH  043%=      5-min Rain = 0
KFL1 111503Z 08007KT 21/08 A3049 RMK A01 T02050075  RH  043%=      5-min Rain = 0
KFL1 111504Z 07005KT 21/07 A3049 RMK A01 T02050073  RH  042%=      5-min Rain = 0
KFL1 111505Z 07004KT 20/07 A3049 RMK A01 T02030071  RH  042%=      5-min Rain = 0
KFL1 111506Z 07006KT 20/08 A3049 RMK A01 T02040078  RH  044%=      5-min Rain = 0
KFL1 111507Z 08006KT 20/08 A3049 RMK A01 T02040080  RH  045%=      5-min Rain = 0
KFL1 111508Z 07008KT 21/07 A3049 RMK A01 T02050072  RH  042%=      5-min Rain = 0
KFL1 111509Z 05006KT 21/07 A3049 RMK A01 T02070074  RH  042%=      5-min Rain = 0
KFL1 111510Z 07005KT 21/08 A3049 RMK A01 T02070075  RH  042%=      5-min Rain = 0
KFL1 111511Z 08006KT 21/08 A3049 RMK A01 T02070077  RH  043%=      5-min Rain = 0
KFL1 111512Z 07007KT 21/07 A3049 RMK A01 T02070074  RH  042%=      5-min Rain = 0
KFL1 111513Z 09005KT 21/07 A3049 RMK A01 T02070074  RH  042%=      5-min Rain = 0
KFL1 111514Z 09004KT 21/08 A3049 RMK A01 T02080075  RH  042%=      5-min Rain = 0
KFL1 111515Z 08006KT 21/07 A3049 RMK A01 T02080074  RH  042%=      5-min Rain = 0
KFL1 111516Z 07007KT 21/07 A3049 RMK A01 T02090073  RH  041%=      5-min Rain = 0
KFL1 111517Z 08006KT 21/07 A3049 RMK A01 T02080070  RH  041%=      5-min Rain = 0
KFL1 111518Z 09004KT 21/08 A3049 RMK A01 T02080075  RH  042%=      5-min Rain = 0
KFL1 111519Z 10006KT 21/07 A3049 RMK A01 T02100074  RH  041%=      5-min Rain = 0
KFL1 111520Z 09006KT 21/07 A3049 RMK A01 T02090069  RH  040%=      5-min Rain = 0
KFL1 111521Z 09004KT 21/07 A3049 RMK A01 T02100066  RH  039%=      5-min Rain = 0
KFL1 111522Z 09006KT 21/07 A3049 RMK A01 T02100069  RH  040%=      5-min Rain = 0
KFL1 111523Z 09005KT 21/08 A3049 RMK A01 T02110075  RH  041%=      5-min Rain = 0
KFL1 111524Z 08007KT 21/07 A3049 RMK A01 T02110074  RH  041%=      5-min Rain = 0
KFL1 111525Z 08008KT 21/07 A3049 RMK A01 T02130073  RH  040%=      5-min Rain = 0
KFL1 111526Z 08006KT 21/08 A3049 RMK A01 T02130075  RH  041%=      5-min Rain = 0
KFL1 111527Z 08005KT 21/07 A3049 RMK A01 T02120070  RH  040%=      5-min Rain = 0
KFL1 111528Z 08003KT 21/08 A3049 RMK A01 T02130077  RH  042%=      5-min Rain = 0
KFL1 111529Z 08005KT 21/08 A3049 RMK A01 T02140077  RH  041%=      5-min Rain = 0
KFL1 111530Z 07007KT 21/08 A3049 RMK A01 T02130080  RH  042%=      5-min Rain = 0
KFL1 111531Z 08006KT 22/08 A3049 RMK A01 T02150078  RH  041%=      5-min Rain = 0
KFL1 111532Z 07005KT 21/08 A3049 RMK A01 T02140081  RH  042%=      5-min Rain = 0
KFL1 111533Z 08007KT 22/08 A3049 RMK A01 T02150076  RH  041%=      5-min Rain = 0
KFL1 111534Z 08003KT 22/07 A3049 RMK A01 T02150072  RH  040%=      5-min Rain = 0
KFL1 111535Z 07004KT 22/08 A3049 RMK A01 T02160082  RH  042%=      5-min Rain = 0
KFL1 111536Z 10005KT 22/08 A3049 RMK A01 T02160083  RH  042%=      5-min Rain = 0
KFL1 111537Z 10008KT 22/08 A3049 RMK A01 T02190076  RH  040%=      5-min Rain = 0
KFL1 111538Z 10005KT 22/07 A3049 RMK A01 T02180071  RH  039%=      5-min Rain = 0
KFL1 111539Z 10007KT 22/07 A3049 RMK A01 T02170065  RH  037%=      5-min Rain = 0
KFL1 111540Z 09006KT 21/07 A3049 RMK A01 T02140065  RH  038%=      5-min Rain = 0
KFL1 111541Z 09004KT 21/07 A3049 RMK A01 T02140071  RH  040%=      5-min Rain = 0
KFL1 111542Z 09006KT 21/07 A3049 RMK A01 T02140074  RH  040%=      5-min Rain = 0
KFL1 111543Z 08006KT 22/08 A3049 RMK A01 T02160079  RH  041%=      5-min Rain = 0
KFL1 111544Z 08007KT 22/07 A3049 RMK A01 T02180073  RH  039%=      5-min Rain = 0
KFL1 111545Z 08008KT 22/07 A3049 RMK A01 T02190074  RH  039%=      5-min Rain = 0
KFL1 111546Z 08007KT 22/07 A3049 RMK A01 T02190069  RH  038%=      5-min Rain = 0
KFL1 111547Z 08007KT 22/07 A3049 RMK A01 T02200066  RH  037%=      5-min Rain = 0
KFL1 111548Z 09005KT 22/07 A3049 RMK A01 T02190069  RH  038%=      5-min Rain = 0
KFL1 111549Z 09006KT 22/07 A3049 RMK A01 T02190067  RH  037%=      5-min Rain = 0
KFL1 111550Z 09007KT 22/07 A3049 RMK A01 T02190067  RH  037%=      5-min Rain = 0
KFL1 111551Z 08006KT 22/07 A3049 RMK A01 T02190067  RH  037%=      5-min Rain = 0
KFL1 111552Z 10006KT 22/07 A3049 RMK A01 T02200066  RH  037%=      5-min Rain = 0
KFL1 111553Z 08005KT 22/07 A3049 RMK A01 T02190069  RH  038%=      5-min Rain = 0
KFL1 111554Z 07004KT 22/07 A3049 RMK A01 T02180067  RH  038%=      5-min Rain = 0
KFL1 111555Z 09006KT 22/07 A3049 RMK A01 T02200074  RH  039%=      5-min Rain = 0
KFL1 111556Z 10004KT 22/08 A3049 RMK A01 T02190076  RH  040%=      5-min Rain = 0
KFL1 111557Z 09004KT 22/07 A3049 RMK A01 T02220071  RH  038%=      5-min Rain = 0
KFL1 111558Z 09004KT 22/07 A3049 RMK A01 T02230070  RH  037%=      5-min Rain = 0
KFL1 111559Z 11005KT 22/07 A3049 RMK A01 T02220074  RH  038%=      5-min Rain = 0
KFL1 111600Z 11005KT 22/07 A3049 RMK A01 T02220071  RH  038%=      5-min Rain = 0
KFL1 111601Z 10006KT 22/07 A3049 RMK A01 T02210067  RH  037%=      5-min Rain = 0
KFL1 111602Z 11005KT 22/07 A3049 RMK A01 T02190071  RH  038%=      5-min Rain = 0
KFL1 111603Z 11004KT 22/08 A3049 RMK A01 T02200075  RH  039%=      5-min Rain = 0
KFL1 111604Z 10004KT 22/07 A3049 RMK A01 T02210067  RH  037%=      5-min Rain = 0
KFL1 111605Z 09004KT 22/07 A3049 RMK A01 T02230072  RH  038%=      5-min Rain = 0
KFL1 111606Z 10007KT 23/08 A3049 RMK A01 T02260077  RH  038%=      5-min Rain = 0
KFL1 111607Z 10007KT 23/07 A3049 RMK A01 T02280069  RH  036%=      5-min Rain = 0
KFL1 111608Z 11007KT 23/07 A3049 RMK A01 T02280069  RH  036%=      5-min Rain = 0
KFL1 111609Z 11008KT 23/07 A3049 RMK A01 T02280067  RH  035%=      5-min Rain = 0
KFL1 111610Z 12006KT 23/07 A3049 RMK A01 T02280070  RH  036%=      5-min Rain = 0
KFL1 111611Z 12006KT 23/07 A3049 RMK A01 T02300068  RH  035%=      5-min Rain = 0
KFL1 111612Z 10008KT 23/07 A3049 RMK A01 T02300065  RH  034%=      5-min Rain = 0
KFL1 111613Z 10007KT 23/07 A3049 RMK A01 T02300072  RH  036%=      5-min Rain = 0
KFL1 111614Z 10008KT 23/07 A3049 RMK A01 T02320069  RH  035%=      5-min Rain = 0
KFL1 111615Z 10008KT 23/06 A3049 RMK A01 T02300064  RH  034%=      5-min Rain = 0
KFL1 111616Z 09008KT 23/07 A3049 RMK A01 T02290065  RH  035%=      5-min Rain = 0
KFL1 111617Z 08008KT 23/07 A3049 RMK A01 T02280071  RH  036%=      5-min Rain = 0
KFL1 111618Z 09006KT 23/07 A305 RMK A01 T02300074  RH  037%=      5-min Rain = 0
KFL1 111619Z 10003KT 23/07 A3049 RMK A01 T02300066  RH  035%=      5-min Rain = 0
KFL1 111620Z 11006KT 23/07 A305 RMK A01 T02300073  RH  036%=      5-min Rain = 0
KFL1 111621Z 12007KT 23/07 A305 RMK A01 T02310070  RH  035%=      5-min Rain = 0
KFL1 111622Z 12006KT 23/07 A305 RMK A01 T02300068  RH  035%=      5-min Rain = 0
KFL1 111623Z 10005KT 23/07 A305 RMK A01 T02320068  RH  035%=      5-min Rain = 0
KFL1 111624Z 11006KT 23/07 A305 RMK A01 T02330069  RH  035%=      5-min Rain = 0
KFL1 111625Z 09007KT 23/07 A305 RMK A01 T02330067  RH  034%=      5-min Rain = 0
KFL1 111626Z 10006KT 23/08 A3049 RMK A01 T02320076  RH  037%=      5-min Rain = 0
KFL1 111627Z 11006KT 23/07 A3049 RMK A01 T02340073  RH  036%=      5-min Rain = 0
KFL1 111628Z 11005KT 24/07 A3049 RMK A01 T02350067  RH  034%=      5-min Rain = 0
KFL1 111629Z 10005KT 23/06 A3049 RMK A01 T02320064  RH  034%=      5-min Rain = 0
KFL1 111630Z 12005KT 23/06 A3049 RMK A01 T02290062  RH  034%=      5-min Rain = 0
KFL1 111631Z 11004KT 23/06 A3049 RMK A01 T02300062  RH  034%=      5-min Rain = 0
KFL1 111632Z 10006KT 23/06 A3049 RMK A01 T02290064  RH  034%=      5-min Rain = 0
KFL1 111633Z 10006KT 23/07 A3049 RMK A01 T02310067  RH  035%=      5-min Rain = 0
KFL1 111634Z 09007KT 23/06 A3049 RMK A01 T02320064  RH  034%=      5-min Rain = 0
KFL1 111635Z 09007KT 23/06 A3049 RMK A01 T02310060  RH  033%=      5-min Rain = 0
KFL1 111636Z 08005KT 23/06 A3049 RMK A01 T02310063  RH  034%=      5-min Rain = 0
KFL1 111637Z 09005KT 23/07 A3049 RMK A01 T02300074  RH  037%=      5-min Rain = 0
KFL1 111638Z 09004KT 23/07 A3049 RMK A01 T02330067  RH  034%=      5-min Rain = 0
KFL1 111639Z 08002KT 24/07 A3049 RMK A01 T02350069  RH  034%=      5-min Rain = 0
KFL1 111640Z 12002KT 24/07 A3049 RMK A01 T02370069  RH  034%=      5-min Rain = 0
KFL1 111641Z 12002KT 24/07 A3049 RMK A01 T02400066  RH  033%=      5-min Rain = 0
KFL1 111642Z 09004KT 24/06 A3049 RMK A01 T02380063  RH  032%=      5-min Rain = 0
KFL1 111643Z 08004KT 24/07 A3049 RMK A01 T02350065  RH  033%=      5-min Rain = 0
KFL1 111644Z 08005KT 23/07 A3049 RMK A01 T02340072  RH  035%=      5-min Rain = 0
KFL1 111645Z 09005KT 24/07 A3049 RMK A01 T02360070  RH  034%=      5-min Rain = 0
KFL1 111646Z 09006KT 24/07 A3049 RMK A01 T02350074  RH  035%=      5-min Rain = 0
KFL1 111647Z 10005KT 24/08 A3049 RMK A01 T02420080  RH  036%=      5-min Rain = 0
KFL1 111648Z 12005KT 24/07 A3049 RMK A01 T02440070  RH  033%=      5-min Rain = 0
KFL1 111649Z 13003KT 24/06 A3049 RMK A01 T02430061  RH  031%=      5-min Rain = 0
KFL1 111650Z 11004KT 24/07 A3049 RMK A01 T02410067  RH  033%=      5-min Rain = 0
KFL1 111651Z 12005KT 24/07 A3049 RMK A01 T02400069  RH  033%=      5-min Rain = 0
KFL1 111652Z 12005KT 24/07 A3049 RMK A01 T02420069  RH  033%=      5-min Rain = 0
KFL1 111653Z 13005KT 24/07 A3049 RMK A01 T02420070  RH  033%=      5-min Rain = 0
KFL1 111654Z 13005KT 24/07 A3049 RMK A01 T02420069  RH  033%=      5-min Rain = 0
KFL1 111655Z 13003KT 24/07 A3049 RMK A01 T02430067  RH  032%=      5-min Rain = 0
KFL1 111656Z 12003KT 24/07 A3049 RMK A01 T02430070  RH  033%=      5-min Rain = 0
KFL1 111657Z 11004KT 25/07 A3049 RMK A01 T02450073  RH  033%=      5-min Rain = 0
KFL1 111658Z 13003KT 25/07 A3049 RMK A01 T02460069  RH  032%=      5-min Rain = 0
KFL1 111659Z 13004KT 24/07 A3049 RMK A01 T02440065  RH  032%=      5-min Rain = 0
KFL1 111700Z 13005KT 24/07 A3049 RMK A01 T02430066  RH  032%=      5-min Rain = 0
KFL1 111701Z 12004KT 24/07 A3049 RMK A01 T02420070  RH  033%=      5-min Rain = 0
KFL1 111702Z 13003KT 24/07 A3049 RMK A01 T02440069  RH  033%=      5-min Rain = 0
KFL1 111703Z 12004KT 25/07 A3049 RMK A01 T02460066  RH  032%=      5-min Rain = 0
KFL1 111704Z 09002KT 25/07 A3049 RMK A01 T02470072  RH  033%=      5-min Rain = 0
KFL1 111705Z 14002KT 25/07 A3049 RMK A01 T02470070  RH  032%=      5-min Rain = 0
KFL1 111706Z 13002KT 25/07 A3049 RMK A01 T02470065  RH  031%=      5-min Rain = 0
KFL1 111707Z 13002KT 25/07 A3049 RMK A01 T02470072  RH  033%=      5-min Rain = 0
KFL1 111708Z 16004KT 25/07 A3049 RMK A01 T02480073  RH  033%=      5-min Rain = 0
KFL1 111709Z 16003KT 25/08 A3049 RMK A01 T02500076  RH  033%=      5-min Rain = 0
KFL1 111710Z 18005KT 25/08 A3049 RMK A01 T02530075  RH  032%=      5-min Rain = 0
KFL1 111711Z 16003KT 25/07 A3049 RMK A01 T02520069  RH  031%=      5-min Rain = 0
KFL1 111712Z 18004KT 25/07 A3049 RMK A01 T02530073  RH  032%=      5-min Rain = 0
KFL1 111713Z 18004KT 26/07 A3049 RMK A01 T02550074  RH  032%=      5-min Rain = 0
KFL1 111714Z 16001KT 26/07 A3049 RMK A01 T02560071  RH  031%=      5-min Rain = 0
KFL1 111715Z 23001KT 26/07 A3049 RMK A01 T02550071  RH  031%=      5-min Rain = 0
KFL1 111716Z 21001KT 25/07 A3049 RMK A01 T02510065  RH  031%=      5-min Rain = 0
KFL1 111717Z 09004KT 25/07 A3049 RMK A01 T02490066  RH  031%=      5-min Rain = 0
KFL1 111718Z 10006KT 25/08 A3049 RMK A01 T02490077  RH  033%=      5-min Rain = 0
KFL1 111719Z 14002KT 25/07 A3049 RMK A01 T02500072  RH  032%=      5-min Rain = 0
KFL1 111720Z 06001KT 25/07 A3049 RMK A01 T02500065  RH  030%=      5-min Rain = 0
KFL1 111721Z 06001KT 25/07 A3049 RMK A01 T02480066  RH  031%=      5-min Rain = 0
KFL1 111722Z 16003KT 25/07 A3049 RMK A01 T02490071  RH  032%=      5-min Rain = 0
KFL1 111723Z 16004KT 25/07 A3049 RMK A01 T02530073  RH  032%=      5-min Rain = 0
KFL1 111724Z 15007KT 25/08 A3049 RMK A01 T02540076  RH  032%=      5-min Rain = 0
KFL1 111725Z 14004KT 26/07 A3049 RMK A01 T02550067  RH  030%=      5-min Rain = 0
KFL1 111726Z 16005KT 25/07 A3048 RMK A01 T02500069  RH  031%=      5-min Rain = 0
KFL1 111727Z 16004KT 25/07 A3049 RMK A01 T02490069  RH  032%=      5-min Rain = 0
KFL1 111728Z 16004KT 25/07 A3048 RMK A01 T02490065  RH  031%=      5-min Rain = 0
KFL1 111729Z 18005KT 25/07 A3048 RMK A01 T02490073  RH  032%=      5-min Rain = 0
KFL1 111730Z 19005KT 25/07 A3049 RMK A01 T02510065  RH  030%=      5-min Rain = 0
KFL1 111731Z 17002KT 25/06 A3049 RMK A01 T02470061  RH  030%=      5-min Rain = 0
KFL1 111732Z 19004KT 25/07 A3049 RMK A01 T02470067  RH  032%=      5-min Rain = 0
KFL1 111733Z 18004KT 25/07 A3049 RMK A01 T02510069  RH  031%=      5-min Rain = 0
KFL1 111734Z 13004KT 25/07 A3048 RMK A01 T02540072  RH  031%=      5-min Rain = 0
KFL1 111735Z 12003KT 25/06 A3048 RMK A01 T02530064  RH  030%=      5-min Rain = 0
KFL1 111736Z 18004KT 25/07 A3048 RMK A01 T02520067  RH  031%=      5-min Rain = 0
KFL1 111737Z 22006KT 25/07 A3049 RMK A01 T02510072  RH  032%=      5-min Rain = 0
KFL1 111738Z 20004KT 25/07 A3049 RMK A01 T02510070  RH  031%=      5-min Rain = 0
KFL1 111739Z 17003KT 26/07 A3048 RMK A01 T02550072  RH  031%=      5-min Rain = 0
KFL1 111740Z 20007KT 26/08 A3049 RMK A01 T02570078  RH  032%=      5-min Rain = 0
KFL1 111741Z 19006KT 26/08 A3049 RMK A01 T02590075  RH  031%=      5-min Rain = 0
KFL1 111742Z 16004KT 26/07 A3048 RMK A01 T02600070  RH  030%=      5-min Rain = 0
KFL1 111743Z 15004KT 26/06 A3048 RMK A01 T02570063  RH  029%=      5-min Rain = 0
KFL1 111744Z 13003KT 25/07 A3048 RMK A01 T02530069  RH  031%=      5-min Rain = 0
KFL1 111745Z 15002KT 25/07 A3048 RMK A01 T02540068  RH  031%=      5-min Rain = 0
KFL1 111746Z 23003KT 26/08 A3048 RMK A01 T02550075  RH  032%=      5-min Rain = 0
KFL1 111747Z 17002KT 26/08 A3048 RMK A01 T02570076  RH  032%=      5-min Rain = 0
KFL1 111748Z 16006KT 26/08 A3048 RMK A01 T02610077  RH  031%=      5-min Rain = 0
KFL1 111749Z 15006KT 26/08 A3048 RMK A01 T02610075  RH  031%=      5-min Rain = 0
KFL1 111750Z 14005KT 26/07 A3048 RMK A01 T02620072  RH  030%=      5-min Rain = 0
KFL1 111751Z 16004KT 26/07 A3048 RMK A01 T02600066  RH  029%=      5-min Rain = 0
KFL1 111752Z 12002KT 26/06 A3048 RMK A01 T02570059  RH  028%=      5-min Rain = 0
KFL1 111753Z 15003KT 26/06 A3048 RMK A01 T02550063  RH  029%=      5-min Rain = 0
KFL1 111754Z 16005KT 26/07 A3048 RMK A01 T02570074  RH  031%=      5-min Rain = 0
KFL1 111755Z 17006KT 26/07 A3048 RMK A01 T02600072  RH  030%=      5-min Rain = 0
KFL1 111756Z 16006G11KT 26/08 A3048 RMK A01 T02610076  RH  031%=      5-min Rain = 0
KFL1 111757Z 16006KT 26/07 A3048 RMK A01 T02630073  RH  030%=      5-min Rain = 0
KFL1 111758Z 17006KT 27/07 A3048 RMK A01 T02660074  RH  030%=      5-min Rain = 0
KFL1 111759Z 18006KT 27/08 A3048 RMK A01 T02660075  RH  030%=      5-min Rain = 0
KFL1 111800Z 14006KT 26/07 A3048 RMK A01 T02640066  RH  028%=      5-min Rain = 0
KFL1 111801Z 17006KT 26/07 A3048 RMK A01 T02630074  RH  030%=      5-min Rain = 0
KFL1 111802Z 16006KT 27/08 A3048 RMK A01 T02660077  RH  030%=      5-min Rain = 0
KFL1 111803Z 16006KT 27/07 A3048 RMK A01 T02680071  RH  029%=      5-min Rain = 0
KFL1 111804Z 15003KT 27/07 A3048 RMK A01 T02660069  RH  029%=      5-min Rain = 0
KFL1 111805Z 17004KT 27/07 A3048 RMK A01 T02660074  RH  030%=      5-min Rain = 0
KFL1 111806Z 16006KT 27/08 A3048 RMK A01 T02670077  RH  030%=      5-min Rain = 0
KFL1 111807Z 15006KT 27/08 A3048 RMK A01 T02690079  RH  030%=      5-min Rain = 0
KFL1 111808Z 16007KT 27/08 A3048 RMK A01 T02700080  RH  030%=      5-min Rain = 0
KFL1 111809Z 17005G10KT 27/08 A3048 RMK A01 T02730077  RH  029%=      5-min Rain = 0
KFL1 111810Z 17006KT 27/07 A3048 RMK A01 T02730071  RH  028%=      5-min Rain = 0
KFL1 111811Z 19004KT 27/07 A3048 RMK A01 T02700071  RH  028%=      5-min Rain = 0
KFL1 111812Z 24004KT 27/08 A3048 RMK A01 T02710076  RH  029%=      5-min Rain = 0
KFL1 111813Z 24005KT 27/08 A3048 RMK A01 T02710075  RH  029%=      5-min Rain = 0
KFL1 111814Z 26003KT 27/08 A3048 RMK A01 T02680075  RH  029%=      5-min Rain = 0
KFL1 111815Z 26004KT 27/08 A3048 RMK A01 T02690083  RH  031%=      5-min Rain = 0
KFL1 111816Z 21004KT 27/08 A3048 RMK A01 T02710075  RH  029%=      5-min Rain = 0
KFL1 111817Z 21002KT 27/08 A3048 RMK A01 T02730078  RH  029%=      5-min Rain = 0
KFL1 111818Z 23006G13KT 27/08 A3048 RMK A01 T02720076  RH  029%=      5-min Rain = 0
KFL1 111819Z 23010KT 27/08 A3048 RMK A01 T02700076  RH  029%=      5-min Rain = 0
KFL1 111820Z 24007KT 27/07 A3048 RMK A01 T02670069  RH  029%=      5-min Rain = 0
KFL1 111821Z 25003KT 27/07 A3048 RMK A01 T02650071  RH  029%=      5-min Rain = 0
KFL1 111822Z 25009KT 27/08 A3048 RMK A01 T02650077  RH  030%=      5-min Rain = 0
KFL1 111823Z 24008KT 27/07 A3048 RMK A01 T02660074  RH  030%=      5-min Rain = 0
KFL1 111824Z 22004KT 27/07 A3048 RMK A01 T02670071  RH  029%=      5-min Rain = 0
KFL1 111825Z 26004G9KT 27/07 A3048 RMK A01 T02670068  RH  028%=      5-min Rain = 0
KFL1 111826Z 25008G14KT 27/07 A3047 RMK A01 T02650071  RH  029%=      5-min Rain = 0
KFL1 111827Z 29005KT 27/07 A3048 RMK A01 T02650065  RH  028%=      5-min Rain = 0
KFL1 111828Z 29004KT 26/06 A3047 RMK A01 T02580061  RH  028%=      5-min Rain = 0
KFL1 111829Z 26004KT 26/07 A3047 RMK A01 T02560071  RH  031%=      5-min Rain = 0
KFL1 111830Z 24004KT 26/07 A3047 RMK A01 T02560070  RH  030%=      5-min Rain = 0
KFL1 111831Z 21004KT 26/07 A3047 RMK A01 T02570072  RH  031%=      5-min Rain = 0
KFL1 111832Z 16003KT 26/06 A3047 RMK A01 T02600061  RH  028%=      5-min Rain = 0
KFL1 111833Z 23002KT 26/07 A3047 RMK A01 T02610065  RH  029%=      5-min Rain = 0
KFL1 111834Z 25005KT 26/07 A3047 RMK A01 T02630074  RH  030%=      5-min Rain = 0
KFL1 111835Z 26008G14KT 27/08 A3047 RMK A01 T02660083  RH  031%=      5-min Rain = 0
KFL1 111836Z 26005KT 27/07 A3047 RMK A01 T02700073  RH  029%=      5-min Rain = 0
KFL1 111837Z 22006KT 27/08 A3047 RMK A01 T02690076  RH  029%=      5-min Rain = 0
KFL1 111838Z 21008KT 27/08 A3047 RMK A01 T02690079  RH  030%=      5-min Rain = 0
KFL1 111839Z 20009KT 27/08 A3047 RMK A01 T02730077  RH  029%=      5-min Rain = 0
KFL1 111840Z 20007KT 28/08 A3047 RMK A01 T02750075  RH  028%=      5-min Rain = 0
KFL1 111841Z 17006KT 28/07 A3047 RMK A01 T02760069  RH  027%=      5-min Rain = 0
KFL1 111842Z 23008KT 27/08 A3047 RMK A01 T02730075  RH  029%=      5-min Rain = 0
KFL1 111843Z 23008KT 27/08 A3047 RMK A01 T02720075  RH  029%=      5-min Rain = 0
KFL1 111844Z 22006KT 27/07 A3047 RMK A01 T02720069  RH  028%=      5-min Rain = 0
KFL1 111845Z 23005KT 27/06 A3047 RMK A01 T02700063  RH  027%=      5-min Rain = 0
KFL1 111846Z 21008KT 27/07 A3047 RMK A01 T02690069  RH  028%=      5-min Rain = 0
KFL1 111847Z 21007KT 27/07 A3047 RMK A01 T02710070  RH  028%=      5-min Rain = 0
KFL1 111848Z 24004KT 27/06 A3047 RMK A01 T02710063  RH  027%=      5-min Rain = 0
KFL1 111849Z 26006KT 27/07 A3047 RMK A01 T02700070  RH  028%=      5-min Rain = 0
KFL1 111850Z 28007KT 27/08 A3047 RMK A01 T02720080  RH  030%=      5-min Rain = 0
KFL1 111851Z 27006KT 28/08 A3046 RMK A01 T02770082  RH  029%=      5-min Rain = 0
KFL1 111852Z 23002KT 28/06 A3046 RMK A01 T02780064  RH  026%=      5-min Rain = 0
KFL1 111853Z 26001KT 28/06 A3046 RMK A01 T02750061  RH  026%=      5-min Rain = 0
KFL1 111854Z 16003KT 28/07 A3046 RMK A01 T02750068  RH  027%=      5-min Rain = 0
KFL1 111855Z 15005KT 28/07 A3046 RMK A01 T02760066  RH  026%=      5-min Rain = 0
KFL1 111856Z 15006KT 28/07 A3046 RMK A01 T02770070  RH  027%=      5-min Rain = 0
KFL1 111857Z 14004KT 28/07 A3046 RMK A01 T02780066  RH  026%=      5-min Rain = 0
KFL1 111858Z 13004KT 28/07 A3046 RMK A01 T02760065  RH  026%=      5-min Rain = 0
KFL1 111859Z 18007KT 27/07 A3046 RMK A01 T02740067  RH  027%=      5-min Rain = 0
KFL1 111900Z 16004KT 28/06 A3046 RMK A01 T02750062  RH  026%=      5-min Rain = 0
KFL1 111901Z 16006KT 27/07 A3046 RMK A01 T02730071  RH  028%=      5-min Rain = 0
KFL1 111902Z 17006KT 27/07 A3046 RMK A01 T02740071  RH  028%=      5-min Rain = 0
KFL1 111903Z 20008KT 28/07 A3046 RMK A01 T02760069  RH  027%=      5-min Rain = 0
KFL1 111904Z 23007KT 28/07 A3046 RMK A01 T02790071  RH  027%=      5-min Rain = 0
KFL1 111905Z 23006KT 28/07 A3046 RMK A01 T02790067  RH  026%=      5-min Rain = 0
KFL1 111906Z 24005KT 28/06 A3046 RMK A01 T02800061  RH  025%=      5-min Rain = 0
KFL1 111907Z 25008KT 28/07 A3046 RMK A01 T02780065  RH  026%=      5-min Rain = 0
KFL1 111908Z 20009KT 28/07 A3046 RMK A01 T02770070  RH  027%=      5-min Rain = 0
KFL1 111909Z 22008KT 28/07 A3046 RMK A01 T02780072  RH  027%=      5-min Rain = 0
KFL1 111910Z 23004KT 28/07 A3046 RMK A01 T02790068  RH  026%=      5-min Rain = 0
KFL1 111911Z 25006KT 28/07 A3046 RMK A01 T02780066  RH  026%=      5-min Rain = 0
KFL1 111912Z 26006KT 28/07 A3046 RMK A01 T02800066  RH  026%=      5-min Rain = 0
KFL1 111913Z 27003KT 28/05 A3046 RMK A01 T02760053  RH  024%=      5-min Rain = 0
KFL1 111914Z 23004KT 28/06 A3046 RMK A01 T02750059  RH  025%=      5-min Rain = 0
KFL1 111915Z 24004KT 27/07 A3046 RMK A01 T02720065  RH  027%=      5-min Rain = 0
KFL1 111916Z 26007KT 27/07 A3046 RMK A01 T02720065  RH  027%=      5-min Rain = 0
KFL1 111917Z 24003KT 27/06 A3046 RMK A01 T02730061  RH  026%=      5-min Rain = 0
KFL1 111918Z 22008KT 28/06 A3046 RMK A01 T02770063  RH  026%=      5-min Rain = 0
KFL1 111919Z 21008KT 28/06 A3046 RMK A01 T02770060  RH  025%=      5-min Rain = 0
KFL1 111920Z 22008KT 28/05 A3046 RMK A01 T02770051  RH  024%=      5-min Rain = 0
KFL1 111921Z 23007KT 28/06 A3046 RMK A01 T02790060  RH  025%=      5-min Rain = 0
KFL1 111922Z 22005KT 28/06 A3046 RMK A01 T02760057  RH  025%=      5-min Rain = 0
KFL1 111923Z 20004G11KT 28/06 A3046 RMK A01 T02750058  RH  025%=      5-min Rain = 0
KFL1 111924Z 18008KT 28/06 A3046 RMK A01 T02760064  RH  026%=      5-min Rain = 0
KFL1 111925Z 17008KT 28/06 A3046 RMK A01 T02790062  RH  025%=      5-min Rain = 0
KFL1 111926Z 17006KT 28/06 A3046 RMK A01 T02810062  RH  025%=      5-min Rain = 0
KFL1 111927Z 14004KT 28/05 A3046 RMK A01 T02780051  RH  023%=      5-min Rain = 0
KFL1 111928Z 19005KT 28/06 A3046 RMK A01 T02760060  RH  025%=      5-min Rain = 0
KFL1 111929Z 22008KT 28/06 A3046 RMK A01 T02760063  RH  026%=      5-min Rain = 0
KFL1 111930Z 26006KT 28/07 A3046 RMK A01 T02790065  RH  026%=      5-min Rain = 0
KFL1 111931Z 26002KT 28/05 A3046 RMK A01 T02780054  RH  024%=      5-min Rain = 0
KFL1 111932Z 24002KT 28/06 A3045 RMK A01 T02770056  RH  025%=      5-min Rain = 0
KFL1 111933Z 16003KT 27/05 A3045 RMK A01 T02740046  RH  023%=      5-min Rain = 0
KFL1 111934Z 24002KT 27/04 A3045 RMK A01 T02690043  RH  023%=      5-min Rain = 0
KFL1 111935Z 33003KT 27/05 A3045 RMK A01 T02680053  RH  025%=      5-min Rain = 0
KFL1 111936Z 28003KT 27/05 A3045 RMK A01 T02660052  RH  025%=      5-min Rain = 0
KFL1 111937Z 27003KT 27/06 A3045 RMK A01 T02660060  RH  027%=      5-min Rain = 0
KFL1 111938Z 26003KT 27/06 A3045 RMK A01 T02680057  RH  026%=      5-min Rain = 0
KFL1 111939Z 29002KT 27/06 A3045 RMK A01 T02690061  RH  027%=      5-min Rain = 0
KFL1 111940Z 18005KT 27/07 A3045 RMK A01 T02700065  RH  027%=      5-min Rain = 0
KFL1 111941Z 23006KT 27/07 A3045 RMK A01 T02740068  RH  027%=      5-min Rain = 0
KFL1 111942Z 26004KT 28/07 A3045 RMK A01 T02800071  RH  027%=      5-min Rain = 0
KFL1 111943Z 19005G10KT 28/07 A3045 RMK A01 T02840071  RH  026%=      5-min Rain = 0
KFL1 111944Z 23007KT 29/07 A3045 RMK A01 T02870067  RH  025%=      5-min Rain = 0
KFL1 111945Z 23005KT 29/07 A3045 RMK A01 T02880066  RH  025%=      5-min Rain = 0
KFL1 111946Z 24006G12KT 28/06 A3045 RMK A01 T02840063  RH  025%=      5-min Rain = 0
KFL1 111947Z 22002KT 28/05 A3045 RMK A01 T02800047  RH  023%=      5-min Rain = 0
KFL1 111948Z 20003KT 28/05 A3045 RMK A01 T02770054  RH  024%=      5-min Rain = 0
KFL1 111949Z 18005KT 28/06 A3045 RMK A01 T02780059  RH  025%=      5-min Rain = 0
KFL1 111950Z 19004KT 28/05 A3045 RMK A01 T02800053  RH  023%=      5-min Rain = 0
KFL1 111951Z 18006KT 28/06 A3045 RMK A01 T02800056  RH  024%=      5-min Rain = 0
KFL1 111952Z 17006KT 28/05 A3044 RMK A01 T02820049  RH  023%=      5-min Rain = 0
KFL1 111953Z 17006KT 28/05 A3044 RMK A01 T02810045  RH  022%=      5-min Rain = 0
KFL1 111954Z 17004KT 28/05 A3044 RMK A01 T02820048  RH  023%=      5-min Rain = 0
KFL1 111955Z 20004KT 28/05 A3044 RMK A01 T02810049  RH  023%=      5-min Rain = 0
KFL1 111956Z 19003KT 29/05 A3044 RMK A01 T02850053  RH  023%=      5-min Rain = 0
KFL1 111957Z 17006KT 29/06 A3044 RMK A01 T02850055  RH  023%=      5-min Rain = 0
KFL1 111958Z 21003KT 29/05 A3044 RMK A01 T02860054  RH  023%=      5-min Rain = 0
KFL1 111959Z 25001KT 29/05 A3044 RMK A01 T02860052  RH  023%=      5-min Rain = 0
KFL1 112000Z 24005KT 28/05 A3044 RMK A01 T02830047  RH  022%=      5-min Rain = 0
KFL1 112001Z 22006KT 28/05 A3044 RMK A01 T02770045  RH  023%=      5-min Rain = 0
KFL1 112002Z 23003KT 27/04 A3044 RMK A01 T02700040  RH  023%=      5-min Rain = 0
KFL1 112003Z 23004KT 27/05 A3044 RMK A01 T02660049  RH  025%=      5-min Rain = 0
KFL1 112004Z 20004KT 26/05 A3044 RMK A01 T02640053  RH  026%=      5-min Rain = 0
KFL1 112005Z 21004KT 27/06 A3044 RMK A01 T02680059  RH  026%=      5-min Rain = 0
KFL1 112006Z 19007KT 27/06 A3044 RMK A01 T02740058  RH  025%=      5-min Rain = 0
KFL1 112007Z 22007KT 28/06 A3044 RMK A01 T02780059  RH  025%=      5-min Rain = 0
KFL1 112008Z 21006KT 28/06 A3044 RMK A01 T02790055  RH  024%=      5-min Rain = 0
KFL1 112009Z 21005KT 28/06 A3044 RMK A01 T02800055  RH  024%=      5-min Rain = 0
KFL1 112010Z 23002KT 28/05 A3044 RMK A01 T02800051  RH  023%=      5-min Rain = 0
KFL1 112011Z 18005KT 29/05 A3044 RMK A01 T02850052  RH  023%=      5-min Rain = 0
KFL1 112012Z 15005KT 29/03 A3044 RMK A01 T02860033  RH  020%=      5-min Rain = 0
KFL1 112013Z 16007KT 29/05 A3044 RMK A01 T02860049  RH  022%=      5-min Rain = 0
KFL1 112014Z 14005KT 29/05 A3043 RMK A01 T02890053  RH  022%=      5-min Rain = 0
KFL1 112015Z 13004KT 29/04 A3043 RMK A01 T02910041  RH  020%=      5-min Rain = 0
KFL1 112016Z 13003KT 29/03 A3043 RMK A01 T02860031  RH  020%=      5-min Rain = 0
KFL1 112017Z 12001KT 28/03 A3043 RMK A01 T02790030  RH  020%=      5-min Rain = 0
KFL1 112018Z 16001KT 28/04 A3043 RMK A01 T02770039  RH  022%=      5-min Rain = 0
KFL1 112019Z 22005KT 28/04 A3043 RMK A01 T02800040  RH  021%=      5-min Rain = 0
KFL1 112020Z 21002KT 28/04 A3043 RMK A01 T02790038  RH  021%=      5-min Rain = 0
KFL1 112021Z 18007KT 28/04 A3043 RMK A01 T02800043  RH  022%=      5-min Rain = 0
KFL1 112022Z 18005KT 28/05 A3043 RMK A01 T02840046  RH  022%=      5-min Rain = 0
KFL1 112023Z 16007KT 29/04 A3043 RMK A01 T02860041  RH  021%=      5-min Rain = 0
KFL1 112024Z 16005KT 29/04 A3043 RMK A01 T02860040  RH  021%=      5-min Rain = 0
KFL1 112025Z 14005KT 29/04 A3043 RMK A01 T02850037  RH  020%=      5-min Rain = 0
KFL1 112026Z 16010KT 29/04 A3043 RMK A01 T02850044  RH  021%=      5-min Rain = 0
KFL1 112027Z 15010KT 29/04 A3043 RMK A01 T02870039  RH  020%=      5-min Rain = 0
KFL1 112028Z 18007KT 29/04 A3043 RMK A01 T02850043  RH  021%=      5-min Rain = 0
KFL1 112029Z 18008KT 29/05 A3043 RMK A01 T02860046  RH  022%=      5-min Rain = 0
KFL1 112030Z 18006KT 29/04 A3043 RMK A01 T02880042  RH  021%=      5-min Rain = 0
KFL1 112031Z 19007KT 29/05 A3043 RMK A01 T02900045  RH  021%=      5-min Rain = 0
KFL1 112032Z 21006KT 29/04 A3043 RMK A01 T02930037  RH  020%=      5-min Rain = 0
KFL1 112033Z 21004KT 30/03 A3043 RMK A01 T02960031  RH  018%=      5-min Rain = 0
KFL1 112034Z 19007G12KT 30/04 A3043 RMK A01 T02970040  RH  020%=      5-min Rain = 0
KFL1 112035Z 17004KT 30/04 A3043 RMK A01 T02950038  RH  019%=      5-min Rain = 0
KFL1 112036Z 16004KT 30/04 A3043 RMK A01 T02950041  RH  020%=      5-min Rain = 0
KFL1 112037Z 12004KT 30/04 A3043 RMK A01 T02970039  RH  019%=      5-min Rain = 0
KFL1 112038Z 10004KT 30/06 A3043 RMK A01 T02980056  RH  022%=      5-min Rain = 0
KFL1 112039Z 08006KT 29/07 A3043 RMK A01 T02910067  RH  024%=      5-min Rain = 0
KFL1 112040Z 14007KT 29/07 A3043 RMK A01 T02860068  RH  025%=      5-min Rain = 0
KFL1 112041Z 28009G15KT 28/07 A3042 RMK A01 T02800069  RH  026%=      5-min Rain = 0
KFL1 112042Z 34012KT 28/08 A3043 RMK A01 T02790082  RH  029%=      5-min Rain = 0
KFL1 112043Z 01011KT 27/07 A3043 RMK A01 T02730073  RH  028%=      5-min Rain = 0
KFL1 112044Z 01009KT 27/07 A3043 RMK A01 T02660072  RH  029%=      5-min Rain = 0
KFL1 112045Z 02008KT 27/08 A3043 RMK A01 T02650078  RH  031%=      5-min Rain = 0
KFL1 112046Z 02010KT 27/08 A3043 RMK A01 T02650077  RH  030%=      5-min Rain = 0
KFL1 112047Z 02010KT 26/07 A3043 RMK A01 T02640070  RH  029%=      5-min Rain = 0
KFL1 112048Z 05007KT 26/07 A3043 RMK A01 T02610068  RH  029%=      5-min Rain = 0
KFL1 112049Z 02005KT 26/06 A3043 RMK A01 T02560061  RH  029%=      5-min Rain = 0
KFL1 112050Z 04006KT 25/07 A3043 RMK A01 T02530069  RH  031%=      5-min Rain = 0
KFL1 112051Z 06007KT 25/08 A3043 RMK A01 T02520079  RH  033%=      5-min Rain = 0
KFL1 112052Z 03007KT 25/08 A3043 RMK A01 T02490082  RH  034%=      5-min Rain = 0
KFL1 112053Z 05005KT 25/08 A3043 RMK A01 T02470082  RH  035%=      5-min Rain = 0
KFL1 112054Z 06006KT 24/08 A3043 RMK A01 T02430082  RH  036%=      5-min Rain = 0
KFL1 112055Z 06008KT 24/08 A3043 RMK A01 T02390083  RH  037%=      5-min Rain = 0
KFL1 112056Z 05007KT 24/08 A3043 RMK A01 T02390079  RH  036%=      5-min Rain = 0
KFL1 112057Z 05006KT 23/08 A3043 RMK A01 T02330076  RH  036%=      5-min Rain = 0
KFL1 112058Z 03007KT 23/08 A3043 RMK A01 T02320077  RH  037%=      5-min Rain = 0
KFL1 112059Z 03006KT 23/08 A3043 RMK A01 T02320075  RH  037%=      5-min Rain = 0
KFL1 112100Z 03008KT 23/07 A3043 RMK A01 T02320071  RH  036%=      5-min Rain = 0
KFL1 112101Z 03008KT 23/07 A3043 RMK A01 T02310070  RH  035%=      5-min Rain = 0
KFL1 112102Z 03011KT 23/07 A3043 RMK A01 T02310070  RH  035%=      5-min Rain = 0
KFL1 112103Z 04008KT 23/06 A3043 RMK A01 T02320063  RH  034%=      5-min Rain = 0
KFL1 112104Z 04008KT 23/06 A3043 RMK A01 T02310064  RH  034%=      5-min Rain = 0
KFL1 112105Z 04006KT 23/07 A3043 RMK A01 T02310067  RH  035%=      5-min Rain = 0
KFL1 112106Z 03005KT 23/07 A3043 RMK A01 T02310070  RH  035%=      5-min Rain = 0
KFL1 112107Z 03007KT 23/08 A3043 RMK A01 T02310075  RH  037%=      5-min Rain = 0
KFL1 112108Z 03006KT 23/08 A3043 RMK A01 T02340079  RH  037%=      5-min Rain = 0
KFL1 112109Z 02008KT 24/08 A3043 RMK A01 T02360075  RH  036%=      5-min Rain = 0
KFL1 112110Z 01013KT 24/08 A3043 RMK A01 T02360082  RH  037%=      5-min Rain = 0
KFL1 112111Z 01011KT 23/08 A3043 RMK A01 T02330079  RH  037%=      5-min Rain = 0
KFL1 112112Z 01013KT 23/09 A3043 RMK A01 T02300088  RH  040%=      5-min Rain = 0
KFL1 112113Z 01015KT 23/08 A3043 RMK A01 T02280078  RH  038%=      5-min Rain = 0
KFL1 112114Z 01013KT 23/07 A3043 RMK A01 T02260071  RH  037%=      5-min Rain = 0
KFL1 112115Z 02013KT 23/08 A3043 RMK A01 T02260078  RH  038%=      5-min Rain = 0
KFL1 112116Z 03011G16KT 23/07 A3043 RMK A01 T02250072  RH  037%=      5-min Rain = 0
KFL1 112117Z 03007KT 23/07 A3043 RMK A01 T02250071  RH  037%=      5-min Rain = 0
KFL1 112118Z 02012KT 23/08 A3043 RMK A01 T02260076  RH  038%=      5-min Rain = 0
KFL1 112119Z 02013KT 23/08 A3043 RMK A01 T02280082  RH  039%=      5-min Rain = 0
KFL1 112120Z 02013KT 23/08 A3043 RMK A01 T02310081  RH  038%=      5-min Rain = 0
KFL1 112121Z 01011KT 23/08 A3043 RMK A01 T02300080  RH  038%=      5-min Rain = 0
KFL1 112122Z 02009KT 23/09 A3043 RMK A01 T02300091  RH  041%=      5-min Rain = 0
KFL1 112123Z 00010KT 23/09 A3043 RMK A01 T02280090  RH  041%=      5-min Rain = 0
KFL1 112124Z 02010KT 23/09 A3043 RMK A01 T02270085  RH  040%=      5-min Rain = 0
KFL1 112125Z 02010KT 23/08 A3043 RMK A01 T02250079  RH  039%=      5-min Rain = 0
KFL1 112126Z 01012KT 22/08 A3043 RMK A01 T02230078  RH  039%=      5-min Rain = 0
KFL1 112127Z 36014KT 22/08 A3043 RMK A01 T02230082  RH  040%=      5-min Rain = 0
KFL1 112128Z 01014KT 22/08 A3043 RMK A01 T02230082  RH  040%=      5-min Rain = 0
KFL1 112129Z 01014KT 22/08 A3043 RMK A01 T02220081  RH  040%=      5-min Rain = 0
KFL1 112130Z 01012KT 22/08 A3043 RMK A01 T02200082  RH  041%=      5-min Rain = 0
KFL1 112131Z 01014KT 22/08 A3043 RMK A01 T02220082  RH  041%=      5-min Rain = 0
KFL1 112132Z 01013KT 22/08 A3043 RMK A01 T02230079  RH  040%=      5-min Rain = 0
KFL1 112133Z 01011KT 22/09 A3043 RMK A01 T02240087  RH  042%=      5-min Rain = 0
KFL1 112134Z 01012KT 22/09 A3043 RMK A01 T02240089  RH  042%=      5-min Rain = 0
KFL1 112135Z 00012KT 22/08 A3043 RMK A01 T02220081  RH  040%=      5-min Rain = 0
KFL1 112136Z 01011KT 22/08 A3043 RMK A01 T02220084  RH  041%=      5-min Rain = 0
KFL1 112137Z 01010KT 22/09 A3043 RMK A01 T02210086  RH  042%=      5-min Rain = 0
KFL1 112138Z 01009KT 22/09 A3043 RMK A01 T02210090  RH  043%=      5-min Rain = 0
KFL1 112139Z 01010KT 22/09 A3043 RMK A01 T02230086  RH  042%=      5-min Rain = 0
KFL1 112140Z 00009KT 22/08 A3043 RMK A01 T02220083  RH  041%=      5-min Rain = 0
KFL1 112141Z 01009KT 22/09 A3043 RMK A01 T02220087  RH  042%=      5-min Rain = 0
KFL1 112142Z 01009KT 22/09 A3043 RMK A01 T02240090  RH  042%=      5-min Rain = 0
KFL1 112143Z 35007KT 22/09 A3043 RMK A01 T02230092  RH  043%=      5-min Rain = 0
KFL1 112144Z 35008KT 22/08 A3043 RMK A01 T02240083  RH  040%=      5-min Rain = 0
KFL1 112145Z 35009KT 22/08 A3043 RMK A01 T02240081  RH  040%=      5-min Rain = 0
KFL1 112146Z 35008KT 23/08 A3042 RMK A01 T02250084  RH  040%=      5-min Rain = 0
KFL1 112147Z 36009KT 22/09 A3042 RMK A01 T02240085  RH  041%=      5-min Rain = 0
KFL1 112148Z 36009KT 23/09 A3042 RMK A01 T02250086  RH  041%=      5-min Rain = 0
KFL1 112149Z 34007KT 23/09 A3042 RMK A01 T02250085  RH  041%=      5-min Rain = 0
KFL1 112150Z 35009KT 23/08 A3042 RMK A01 T02250084  RH  041%=      5-min Rain = 0
KFL1 112151Z 35008KT 22/08 A3042 RMK A01 T02220081  RH  040%=      5-min Rain = 0
KFL1 112152Z 36008KT 22/09 A3043 RMK A01 T02230085  RH  041%=      5-min Rain = 0
KFL1 112153Z 36007KT 22/09 A3043 RMK A01 T02210087  RH  042%=      5-min Rain = 0
KFL1 112154Z 35006KT 22/09 A3043 RMK A01 T02210088  RH  043%=      5-min Rain = 0
KFL1 112155Z 34004KT 22/09 A3043 RMK A01 T02200092  RH  044%=      5-min Rain = 0
KFL1 112156Z 34007KT 22/09 A3043 RMK A01 T02210088  RH  043%=      5-min Rain = 0
KFL1 112157Z 34007KT 22/09 A3043 RMK A01 T02220086  RH  042%=      5-min Rain = 0
KFL1 112158Z 00012KT 22/09 A3043 RMK A01 T02230087  RH  042%=      5-min Rain = 0
KFL1 112159Z 36012KT 22/08 A3043 RMK A01 T02210084  RH  041%=      5-min Rain = 0
KFL1 112200Z 00013KT 22/09 A3043 RMK A01 T02190088  RH  043%=      5-min Rain = 0
KFL1 112201Z 36011KT 22/09 A3042 RMK A01 T02170090  RH  044%=      5-min Rain = 0
KFL1 112202Z 35011KT 22/09 A3042 RMK A01 T02160091  RH  045%=      5-min Rain = 0
KFL1 112203Z 35010KT 22/08 A3042 RMK A01 T02170083  RH  042%=      5-min Rain = 0
KFL1 112204Z 34009KT 22/08 A3042 RMK A01 T02170083  RH  042%=      5-min Rain = 0
KFL1 112205Z 33009KT 22/08 A3042 RMK A01 T02190078  RH  040%=      5-min Rain = 0
KFL1 112206Z 34010KT 22/07 A3042 RMK A01 T02210073  RH  038%=      5-min Rain = 0
KFL1 112207Z 34009KT 22/07 A3042 RMK A01 T02220068  RH  037%=      5-min Rain = 0
KFL1 112208Z 34007KT 22/08 A3042 RMK A01 T02230075  RH  038%=      5-min Rain = 0
KFL1 112209Z 35008KT 22/08 A3042 RMK A01 T02230081  RH  040%=      5-min Rain = 0
KFL1 112210Z 35011KT 23/08 A3042 RMK A01 T02250084  RH  040%=      5-min Rain = 0
KFL1 112211Z 35010KT 22/09 A3042 RMK A01 T02240085  RH  041%=      5-min Rain = 0
KFL1 112212Z 35008KT 22/08 A3042 RMK A01 T02230076  RH  039%=      5-min Rain = 0
KFL1 112213Z 34008KT 22/08 A3042 RMK A01 T02230077  RH  039%=      5-min Rain = 0
KFL1 112214Z 33009KT 22/08 A3042 RMK A01 T02240079  RH  039%=      5-min Rain = 0
KFL1 112215Z 33011KT 22/08 A3042 RMK A01 T02240082  RH  040%=      5-min Rain = 0
KFL1 112216Z 34011KT 22/08 A3042 RMK A01 T02230076  RH  039%=      5-min Rain = 0
KFL1 112217Z 34010KT 22/08 A3042 RMK A01 T02220077  RH  039%=      5-min Rain = 0
KFL1 112218Z 35010KT 22/08 A3042 RMK A01 T02210082  RH  041%=      5-min Rain = 0
KFL1 112219Z 35011KT 22/08 A3042 RMK A01 T02190084  RH  042%=      5-min Rain = 0
KFL1 112220Z 35009KT 22/08 A3042 RMK A01 T02180081  RH  041%=      5-min Rain = 0
KFL1 112221Z 35009KT 22/08 A3042 RMK A01 T02170078  RH  041%=      5-min Rain = 0
KFL1 112222Z 35009KT 22/08 A3042 RMK A01 T02190077  RH  040%=      5-min Rain = 0
KFL1 112223Z 35008KT 22/08 A3042 RMK A01 T02180075  RH  040%=      5-min Rain = 0
KFL1 112224Z 36008KT 22/08 A3042 RMK A01 T02180078  RH  041%=      5-min Rain = 0
KFL1 112225Z 36009KT 22/08 A3042 RMK A01 T02160081  RH  042%=      5-min Rain = 0
KFL1 112226Z 35009KT 22/08 A3042 RMK A01 T02150081  RH  042%=      5-min Rain = 0
KFL1 112227Z 00010KT 22/08 A3042 RMK A01 T02160081  RH  042%=      5-min Rain = 0
KFL1 112228Z 01009KT 22/08 A3042 RMK A01 T02150082  RH  042%=      5-min Rain = 0
KFL1 112229Z 01010KT 21/08 A3042 RMK A01 T02140079  RH  042%=      5-min Rain = 0
KFL1 112230Z 01008KT 21/08 A3042 RMK A01 T02130077  RH  041%=      5-min Rain = 0
KFL1 112231Z 01007KT 22/08 A3043 RMK A01 T02150083  RH  043%=      5-min Rain = 0
KFL1 112232Z 01007KT 22/09 A3043 RMK A01 T02150088  RH  044%=      5-min Rain = 0
KFL1 112233Z 01006KT 21/09 A3043 RMK A01 T02140085  RH  044%=      5-min Rain = 0
KFL1 112234Z 01006KT 21/09 A3043 RMK A01 T02140088  RH  044%=      5-min Rain = 0
KFL1 112235Z 01006KT 22/09 A3043 RMK A01 T02150090  RH  045%=      5-min Rain = 0
KFL1 112236Z 02006KT 22/09 A3042 RMK A01 T02170091  RH  044%=      5-min Rain = 0
KFL1 112237Z 03006KT 22/09 A3042 RMK A01 T02200086  RH  042%=      5-min Rain = 0
KFL1 112238Z 02006KT 22/09 A3042 RMK A01 T02220089  RH  042%=      5-min Rain = 0
KFL1 112239Z 01006KT 23/09 A3042 RMK A01 T02250090  RH  042%=      5-min Rain = 0
KFL1 112240Z 03007KT 23/09 A3042 RMK A01 T02300093  RH  042%=      5-min Rain = 0
KFL1 112241Z 02008KT 23/09 A3042 RMK A01 T02320085  RH  039%=      5-min Rain = 0
KFL1 112242Z 02008KT 24/08 A3042 RMK A01 T02370081  RH  037%=      5-min Rain = 0
KFL1 112243Z 03007KT 24/09 A3042 RMK A01 T02360087  RH  039%=      5-min Rain = 0
KFL1 112244Z 02008KT 24/09 A3042 RMK A01 T02410090  RH  038%=      5-min Rain = 0
KFL1 112245Z 02008KT 25/09 A3042 RMK A01 T02450085  RH  036%=      5-min Rain = 0
KFL1 112246Z 01010KT 25/09 A3042 RMK A01 T02460086  RH  036%=      5-min Rain = 0
KFL1 112247Z 36010KT 25/08 A3042 RMK A01 T02450076  RH  034%=      5-min Rain = 0
KFL1 112248Z 34009KT 24/07 A3042 RMK A01 T02440073  RH  033%=      5-min Rain = 0
KFL1 112249Z 34010KT 24/07 A3042 RMK A01 T02440069  RH  033%=      5-min Rain = 0
KFL1 112250Z 36011KT 24/07 A3041 RMK A01 T02430071  RH  033%=      5-min Rain = 0
KFL1 112251Z 36011KT 24/07 A3042 RMK A01 T02440073  RH  033%=      5-min Rain = 0
KFL1 112252Z 00010KT 24/08 A3042 RMK A01 T02440076  RH  034%=      5-min Rain = 0
KFL1 112253Z 36011KT 24/07 A3042 RMK A01 T02430074  RH  034%=      5-min Rain = 0
KFL1 112254Z 35009KT 24/07 A3042 RMK A01 T02410074  RH  034%=      5-min Rain = 0
KFL1 112255Z 35010KT 24/07 A3042 RMK A01 T02430071  RH  033%=      5-min Rain = 0
KFL1 112256Z 35008KT 25/06 A3042 RMK A01 T02450064  RH  031%=      5-min Rain = 0
KFL1 112257Z 36009KT 25/07 A3042 RMK A01 T02470069  RH  032%=      5-min Rain = 0
KFL1 112258Z 35010KT 25/08 A3042 RMK A01 T02490080  RH  034%=      5-min Rain = 0
KFL1 112259Z 34008KT 25/08 A3042 RMK A01 T02490076  RH  033%=      5-min Rain = 0
KFL1 112300Z 36007KT 25/06 A3042 RMK A01 T02500064  RH  030%=      5-min Rain = 0
KFL1 112301Z 34007KT 25/06 A3042 RMK A01 T02510064  RH  030%=      5-min Rain = 0
KFL1 112302Z 34007KT 25/06 A3042 RMK A01 T02510060  RH  029%=      5-min Rain = 0
KFL1 112303Z 33010KT 25/07 A3042 RMK A01 T02500066  RH  031%=      5-min Rain = 0
KFL1 112304Z 34009KT 25/07 A3042 RMK A01 T02500066  RH  031%=      5-min Rain = 0
KFL1 112305Z 33009KT 25/06 A3042 RMK A01 T02490059  RH  030%=      5-min Rain = 0
KFL1 112306Z 33009KT 25/07 A3042 RMK A01 T02490065  RH  031%=      5-min Rain = 0
KFL1 112307Z 32007KT 25/06 A3042 RMK A01 T02500061  RH  030%=      5-min Rain = 0
KFL1 112308Z 34008KT 25/07 A3042 RMK A01 T02510069  RH  031%=      5-min Rain = 0
KFL1 112309Z 34009KT 25/06 A3042 RMK A01 T02520062  RH  030%=      5-min Rain = 0
KFL1 112310Z 33007KT 25/06 A3042 RMK A01 T02510056  RH  029%=      5-min Rain = 0
KFL1 112311Z 33008KT 25/06 A3042 RMK A01 T02500058  RH  029%=      5-min Rain = 0
KFL1 112312Z 32008KT 25/07 A3042 RMK A01 T02500066  RH  031%=      5-min Rain = 0
KFL1 112313Z 35008KT 25/06 A3041 RMK A01 T02490062  RH  030%=      5-min Rain = 0
KFL1 112314Z 01008KT 25/07 A3042 RMK A01 T02480067  RH  031%=      5-min Rain = 0
KFL1 112315Z 00008KT 25/07 A3042 RMK A01 T02490069  RH  032%=      5-min Rain = 0
KFL1 112316Z 00008KT 25/07 A3042 RMK A01 T02480065  RH  031%=      5-min Rain = 0
KFL1 112317Z 00007KT 25/07 A3042 RMK A01 T02460067  RH  032%=      5-min Rain = 0
KFL1 112318Z 33004KT 25/06 A3042 RMK A01 T02460063  RH  031%=      5-min Rain = 0
KFL1 112319Z 35005G10KT 25/07 A3042 RMK A01 T02460068  RH  032%=      5-min Rain = 0
KFL1 112320Z 34011KT 25/07 A3042 RMK A01 T02450065  RH  031%=      5-min Rain = 0
KFL1 112321Z 35009KT 25/06 A3042 RMK A01 T02450057  RH  030%=      5-min Rain = 0
KFL1 112322Z 36008KT 25/06 A3042 RMK A01 T02450057  RH  030%=      5-min Rain = 0
KFL1 112323Z 36009KT 24/06 A3042 RMK A01 T02430060  RH  031%=      5-min Rain = 0
KFL1 112324Z 36007KT 24/06 A3042 RMK A01 T02420062  RH  031%=      5-min Rain = 0
KFL1 112325Z 35006KT 24/07 A3042 RMK A01 T02400065  RH  032%=      5-min Rain = 0
KFL1 112326Z 36008KT 24/07 A3042 RMK A01 T02380070  RH  034%=      5-min Rain = 0
KFL1 112327Z 35009KT 24/07 A3042 RMK A01 T02350070  RH  035%=      5-min Rain = 0
KFL1 112328Z 35010KT 23/07 A3042 RMK A01 T02310068  RH  035%=      5-min Rain = 0
KFL1 112329Z 34009KT 23/07 A3042 RMK A01 T02290069  RH  036%=      5-min Rain = 0
KFL1 112330Z 34008KT 23/07 A3042 RMK A01 T02250071  RH  037%=      5-min Rain = 0
KFL1 112331Z 33007KT 22/07 A3042 RMK A01 T02240071  RH  037%=      5-min Rain = 0
KFL1 112332Z 34007KT 22/07 A3042 RMK A01 T02230071  RH  037%=      5-min Rain = 0
KFL1 112333Z 35007KT 22/07 A3042 RMK A01 T02210068  RH  037%=      5-min Rain = 0
KFL1 112334Z 35008KT 22/07 A3042 RMK A01 T02200069  RH  037%=      5-min Rain = 0
KFL1 112335Z 35009KT 22/07 A3042 RMK A01 T02210068  RH  037%=      5-min Rain = 0
KFL1 112336Z 35007KT 22/07 A3042 RMK A01 T02210065  RH  036%=      5-min Rain = 0
KFL1 112337Z 00008KT 22/07 A3042 RMK A01 T02230071  RH  037%=      5-min Rain = 0
KFL1 112338Z 35007KT 22/07 A3042 RMK A01 T02230074  RH  038%=      5-min Rain = 0
KFL1 112339Z 35008KT 22/08 A3042 RMK A01 T02230080  RH  040%=      5-min Rain = 0
KFL1 112340Z 34008KT 22/08 A3042 RMK A01 T02240078  RH  039%=      5-min Rain = 0
KFL1 112341Z 33006KT 22/08 A3042 RMK A01 T02240083  RH  040%=      5-min Rain = 0
KFL1 112342Z 34005KT 23/08 A3042 RMK A01 T02270079  RH  039%=      5-min Rain = 0
KFL1 112343Z 34004KT 23/08 A3042 RMK A01 T02310078  RH  037%=      5-min Rain = 0
KFL1 112344Z 36006KT 23/08 A3042 RMK A01 T02320078  RH  037%=      5-min Rain = 0
KFL1 112345Z 00006KT 24/08 A3042 RMK A01 T02350077  RH  036%=      5-min Rain = 0
KFL1 112346Z 01005KT 24/08 A3042 RMK A01 T02350076  RH  036%=      5-min Rain = 0
KFL1 112347Z 01005KT 24/08 A3041 RMK A01 T02360079  RH  036%=      5-min Rain = 0
KFL1 112348Z 02006KT 24/08 A3041 RMK A01 T02370080  RH  036%=      5-min Rain = 0
KFL1 112349Z 02007KT 24/07 A3041 RMK A01 T02390073  RH  034%=      5-min Rain = 0
KFL1 112350Z 03006KT 24/07 A3041 RMK A01 T02380069  RH  034%=      5-min Rain = 0
KFL1 112351Z 03006KT 24/08 A3041 RMK A01 T02390075  RH  035%=      5-min Rain = 0
KFL1 112352Z 02005KT 24/07 A3041 RMK A01 T02390073  RH  034%=      5-min Rain = 0
KFL1 112353Z 02006KT 24/08 A3041 RMK A01 T02390080  RH  036%=      5-min Rain = 0
KFL1 112354Z 01007KT 24/08 A3041 RMK A01 T02380082  RH  037%=      5-min Rain = 0
KFL1 112355Z 02006KT 24/08 A3041 RMK A01 T02380079  RH  036%=      5-min Rain = 0
KFL1 112356Z 03005KT 24/08 A3041 RMK A01 T02380083  RH  037%=      5-min Rain = 0
KFL1 112357Z 04004KT 24/08 A3041 RMK A01 T02380081  RH  036%=      5-min Rain = 0
KFL1 112358Z 05005KT 24/08 A3041 RMK A01 T02390082  RH  037%=      5-min Rain = 0
KFL1 112359Z 04004KT 24/08 A3041 RMK A01 T02370079  RH  036%=      5-min Rain = 0
KFL1 120000Z 02005KT 24/08 A3041 RMK A01 T02380082  RH  037%=      5-min Rain = 0
KFL1 120001Z 02005KT 24/07 A3041 RMK A01 T02360071  RH  035%=      5-min Rain = 0
KFL1 120002Z 02006KT 24/07 A3041 RMK A01 T02370070  RH  034%=      5-min Rain = 0
KFL1 120003Z 01006KT 24/07 A3041 RMK A01 T02360070  RH  034%=      5-min Rain = 0
KFL1 120004Z 36006KT 24/08 A3041 RMK A01 T02360075  RH  035%=      5-min Rain = 0
KFL1 120005Z 01006KT 24/06 A3041 RMK A01 T02360058  RH  032%=      5-min Rain = 0
KFL1 120006Z 00007KT 24/07 A3041 RMK A01 T02350073  RH  035%=      5-min Rain = 0
KFL1 120007Z 35006KT 24/07 A3041 RMK A01 T02350072  RH  035%=      5-min Rain = 0
KFL1 120008Z 35006KT 24/06 A3041 RMK A01 T02350060  RH  032%=      5-min Rain = 0
KFL1 120009Z 01005KT 24/07 A3041 RMK A01 T02350068  RH  034%=      5-min Rain = 0
KFL1 120010Z 01005KT 23/08 A3041 RMK A01 T02340082  RH  038%=      5-min Rain = 0
KFL1 120011Z 02004KT 24/08 A3041 RMK A01 T02350083  RH  038%=      5-min Rain = 0
KFL1 120012Z 03004KT 23/08 A3041 RMK A01 T02340081  RH  038%=      5-min Rain = 0
KFL1 120013Z 05003KT 24/08 A3041 RMK A01 T02350075  RH  036%=      5-min Rain = 0
KFL1 120014Z 04005KT 23/08 A3041 RMK A01 T02340076  RH  036%=      5-min Rain = 0
KFL1 120015Z 03005KT 23/08 A3041 RMK A01 T02330079  RH  037%=      5-min Rain = 0
KFL1 120016Z 03004KT 23/08 A3041 RMK A01 T02320078  RH  037%=      5-min Rain = 0
KFL1 120017Z 05003KT 23/08 A3041 RMK A01 T02310077  RH  037%=      5-min Rain = 0
KFL1 120018Z 08003KT 23/08 A3041 RMK A01 T02300078  RH  038%=      5-min Rain = 0
KFL1 120019Z 06003KT 23/08 A3041 RMK A01 T02310079  RH  038%=      5-min Rain = 0
KFL1 120020Z 04005KT 23/08 A3041 RMK A01 T02300081  RH  038%=      5-min Rain = 0
KFL1 120021Z 05006KT 23/08 A3041 RMK A01 T02290077  RH  038%=      5-min Rain = 0
KFL1 120022Z 05004KT 23/07 A3041 RMK A01 T02270074  RH  037%=      5-min Rain = 0
KFL1 120023Z 06004KT 23/08 A3041 RMK A01 T02280077  RH  038%=      5-min Rain = 0
KFL1 120024Z 07004KT 23/08 A3041 RMK A01 T02260079  RH  039%=      5-min Rain = 0
KFL1 120025Z 06004KT 23/08 A3041 RMK A01 T02250077  RH  038%=      5-min Rain = 0
KFL1 120026Z 05006KT 23/08 A3041 RMK A01 T02250080  RH  039%=      5-min Rain = 0
KFL1 120027Z 05006KT 22/08 A3041 RMK A01 T02240077  RH  039%=      5-min Rain = 0
KFL1 120028Z 06006KT 22/08 A3041 RMK A01 T02230075  RH  038%=      5-min Rain = 0
KFL1 120029Z 05007KT 22/08 A3041 RMK A01 T02240076  RH  039%=      5-min Rain = 0
KFL1 120030Z 04005KT 22/07 A3041 RMK A01 T02230073  RH  038%=      5-min Rain = 0
KFL1 120031Z 04006KT 22/07 A3041 RMK A01 T02220073  RH  038%=      5-min Rain = 0
KFL1 120032Z 04005KT 22/08 A3041 RMK A01 T02230075  RH  039%=      5-min Rain = 0
KFL1 120033Z 04004KT 22/08 A3041 RMK A01 T02240078  RH  039%=      5-min Rain = 0
KFL1 120034Z 05003KT 22/08 A3041 RMK A01 T02230076  RH  039%=      5-min Rain = 0
KFL1 120035Z 05003KT 22/08 A3041 RMK A01 T02230078  RH  039%=      5-min Rain = 0
KFL1 120036Z 06005KT 22/08 A3041 RMK A01 T02210077  RH  040%=      5-min Rain = 0
KFL1 120037Z 06005KT 22/08 A3041 RMK A01 T02200079  RH  040%=      5-min Rain = 0
KFL1 120038Z 05004KT 22/07 A3041 RMK A01 T02180074  RH  039%=      5-min Rain = 0
KFL1 120039Z 05005KT 22/07 A3041 RMK A01 T02170074  RH  040%=      5-min Rain = 0
KFL1 120040Z 06004KT 22/08 A3041 RMK A01 T02170075  RH  040%=      5-min Rain = 0
KFL1 120041Z 06004KT 22/08 A3041 RMK A01 T02160076  RH  040%=      5-min Rain = 0
KFL1 120042Z 06004KT 21/07 A3041 RMK A01 T02140072  RH  040%=      5-min Rain = 0
KFL1 120043Z 01002KT 21/08 A3041 RMK A01 T02140078  RH  041%=      5-min Rain = 0
KFL1 120044Z 32003KT 21/09 A3041 RMK A01 T02110087  RH  045%=      5-min Rain = 0
KFL1 120045Z 30005KT 21/08 A3041 RMK A01 T02100082  RH  044%=      5-min Rain = 0
KFL1 120046Z 33004KT 21/08 A3041 RMK A01 T02070077  RH  043%=      5-min Rain = 0
KFL1 120047Z 03003KT 21/06 A3041 RMK A01 T02080063  RH  039%=      5-min Rain = 0
KFL1 120048Z 05004KT 21/07 A3041 RMK A01 T02120067  RH  039%=      5-min Rain = 0
KFL1 120049Z 05005KT 21/07 A3041 RMK A01 T02140069  RH  039%=      5-min Rain = 0
KFL1 120050Z 05004KT 21/07 A3041 RMK A01 T02140069  RH  039%=      5-min Rain = 0
KFL1 120051Z 02002KT 21/07 A3041 RMK A01 T02140070  RH  039%=      5-min Rain = 0
KFL1 120052Z 03002KT 21/07 A3041 RMK A01 T02130069  RH  039%=      5-min Rain = 0
KFL1 120053Z 06002KT 21/07 A3041 RMK A01 T02120071  RH  040%=      5-min Rain = 0
KFL1 120054Z 04003KT 21/07 A3041 RMK A01 T02130074  RH  041%=      5-min Rain = 0
KFL1 120055Z 04004KT 21/08 A3041 RMK A01 T02110075  RH  041%=      5-min Rain = 0
KFL1 120056Z 04006KT 21/08 A3041 RMK A01 T02080076  RH  042%=      5-min Rain = 0
KFL1 120057Z 04004KT 21/07 A3041 RMK A01 T02080074  RH  042%=      5-min Rain = 0
KFL1 120058Z 05004KT 21/07 A3041 RMK A01 T02060073  RH  042%=      5-min Rain = 0
KFL1 120059Z 05004KT 20/07 A3041 RMK A01 T02040072  RH  042%=      5-min Rain = 0
KFL1 120100Z 05005KT 20/07 A3041 RMK A01 T02040073  RH  043%=      5-min Rain = 0
KFL1 120101Z 06003KT 20/07 A3041 RMK A01 T02040074  RH  043%=      5-min Rain = 0
KFL1 120102Z 06004KT 20/07 A3041 RMK A01 T02030074  RH  043%=      5-min Rain = 0
KFL1 120103Z 06004KT 20/08 A3041 RMK A01 T02030077  RH  044%=      5-min Rain = 0
KFL1 120104Z 06005KT 20/08 A3041 RMK A01 T02010077  RH  045%=      5-min Rain = 0
KFL1 120105Z 05006KT 20/08 A3041 RMK A01 T02000078  RH  045%=      5-min Rain = 0
KFL1 120106Z 05007KT 20/08 A3041 RMK A01 T01980078  RH  046%=      5-min Rain = 0
KFL1 120107Z 05007KT 20/08 A3041 RMK A01 T01960076  RH  046%=      5-min Rain = 0
KFL1 120108Z 05006KT 20/08 A3041 RMK A01 T01960076  RH  046%=      5-min Rain = 0
KFL1 120109Z 04006KT 20/08 A3041 RMK A01 T01970076  RH  046%=      5-min Rain = 0
KFL1 120110Z 04006KT 20/08 A3041 RMK A01 T01960076  RH  046%=      5-min Rain = 0
KFL1 120111Z 04006KT 20/08 A3041 RMK A01 T01970078  RH  046%=      5-min Rain = 0
KFL1 120112Z 03007KT 19/08 A3041 RMK A01 T01940075  RH  046%=      5-min Rain = 0
KFL1 120113Z 04007KT 20/08 A3041 RMK A01 T01950077  RH  046%=      5-min Rain = 0
KFL1 120114Z 03007KT 20/08 A3041 RMK A01 T01950077  RH  046%=      5-min Rain = 0
KFL1 120115Z 03007KT 19/08 A3041 RMK A01 T01940075  RH  046%=      5-min Rain = 0
KFL1 120116Z 04007KT 19/07 A3041 RMK A01 T01940074  RH  046%=      5-min Rain = 0
KFL1 120117Z 03006KT 19/07 A3041 RMK A01 T01940073  RH  045%=      5-min Rain = 0
KFL1 120118Z 03007KT 20/07 A3041 RMK A01 T01950073  RH  045%=      5-min Rain = 0
KFL1 120119Z 04007KT 20/07 A3041 RMK A01 T01960073  RH  045%=      5-min Rain = 0
KFL1 120120Z 04006KT 20/07 A3041 RMK A01 T01950072  RH  045%=      5-min Rain = 0
KFL1 120121Z 05005KT 19/07 A3041 RMK A01 T01940072  RH  045%=      5-min Rain = 0
KFL1 120122Z 05006KT 19/07 A3041 RMK A01 T01930072  RH  045%=      5-min Rain = 0
KFL1 120123Z 05005KT 19/07 A3041 RMK A01 T01920073  RH  046%=      5-min Rain = 0
KFL1 120124Z 05005KT 19/08 A3041 RMK A01 T01900075  RH  047%=      5-min Rain = 0
KFL1 120125Z 06006KT 19/08 A3041 RMK A01 T01880076  RH  048%=      5-min Rain = 0
KFL1 120126Z 06006KT 19/08 A3041 RMK A01 T01870076  RH  049%=      5-min Rain = 0
KFL1 120127Z 06006KT 19/08 A3041 RMK A01 T01850077  RH  049%=      5-min Rain = 0
KFL1 120128Z 05006KT 18/08 A3041 RMK A01 T01830076  RH  050%=      5-min Rain = 0
KFL1 120129Z 05006KT 18/08 A3041 RMK A01 T01810076  RH  050%=      5-min Rain = 0
KFL1 120130Z 05005KT 18/08 A3041 RMK A01 T01800076  RH  050%=      5-min Rain = 0
KFL1 120131Z 05007KT 18/08 A3041 RMK A01 T01800076  RH  051%=      5-min Rain = 0
KFL1 120132Z 05007KT 18/08 A3041 RMK A01 T01780076  RH  051%=      5-min Rain = 0
KFL1 120133Z 05008KT 18/08 A3041 RMK A01 T01780077  RH  052%=      5-min Rain = 0
KFL1 120134Z 04008KT 18/08 A3041 RMK A01 T01780078  RH  052%=      5-min Rain = 0
KFL1 120135Z 04008KT 18/08 A3041 RMK A01 T01750075  RH  052%=      5-min Rain = 0
KFL1 120136Z 04008KT 18/08 A3041 RMK A01 T01760076  RH  052%=      5-min Rain = 0
KFL1 120137Z 04008KT 18/08 A3041 RMK A01 T01750075  RH  052%=      5-min Rain = 0
KFL1 120138Z 04008KT 18/08 A3041 RMK A01 T01750075  RH  052%=      5-min Rain = 0
KFL1 120139Z 04007KT 18/08 A3041 RMK A01 T01750075  RH  052%=      5-min Rain = 0
KFL1 120140Z 04007KT 17/08 A3041 RMK A01 T01740075  RH  052%=      5-min Rain = 0
KFL1 120141Z 05007KT 18/08 A3041 RMK A01 T01750077  RH  052%=      5-min Rain = 0
KFL1 120142Z 04008KT 17/08 A3041 RMK A01 T01740077  RH  053%=      5-min Rain = 0
KFL1 120143Z 04007KT 17/08 A3041 RMK A01 T01720076  RH  053%=      5-min Rain = 0
KFL1 120144Z 03007KT 17/08 A3041 RMK A01 T01740079  RH  053%=      5-min Rain = 0
KFL1 120145Z 03007KT 17/08 A3041 RMK A01 T01730078  RH  054%=      5-min Rain = 0
KFL1 120146Z 03007KT 17/08 A3041 RMK A01 T01720077  RH  054%=      5-min Rain = 0
KFL1 120147Z 04007KT 17/08 A3041 RMK A01 T01720077  RH  054%=      5-min Rain = 0
KFL1 120148Z 04007KT 17/08 A3041 RMK A01 T01710077  RH  054%=      5-min Rain = 0
KFL1 120149Z 04007KT 17/08 A3041 RMK A01 T01700076  RH  054%=      5-min Rain = 0
KFL1 120150Z 03006KT 17/08 A3041 RMK A01 T01700075  RH  054%=      5-min Rain = 0
KFL1 120151Z 04006KT 17/08 A3041 RMK A01 T01700075  RH  054%=      5-min Rain = 0
KFL1 120152Z 05006KT 17/08 A3041 RMK A01 T01700076  RH  054%=      5-min Rain = 0
KFL1 120153Z 05007KT 17/08 A3041 RMK A01 T01700077  RH  054%=      5-min Rain = 0
KFL1 120154Z 05007KT 17/08 A3041 RMK A01 T01670076  RH  055%=      5-min Rain = 0
KFL1 120155Z 05007KT 17/08 A3041 RMK A01 T01670076  RH  055%=      5-min Rain = 0
KFL1 120156Z 05007KT 17/08 A3041 RMK A01 T01660076  RH  055%=      5-min Rain = 0
KFL1 120157Z 05007KT 17/08 A3042 RMK A01 T01660076  RH  055%=      5-min Rain = 0
KFL1 120158Z 05006KT 16/08 A3042 RMK A01 T01640075  RH  055%=      5-min Rain = 0
KFL1 120159Z 05006KT 16/07 A3042 RMK A01 T01630074  RH  055%=      5-min Rain = 0
KFL1 120200Z 05006KT 16/07 A3042 RMK A01 T01620073  RH  056%=      5-min Rain = 0
KFL1 120201Z 05006KT 16/07 A3042 RMK A01 T01620073  RH  055%=      5-min Rain = 0
KFL1 120202Z 05007KT 16/07 A3042 RMK A01 T01620073  RH  056%=      5-min Rain = 0
KFL1 120203Z 05006KT 16/07 A3042 RMK A01 T01610073  RH  056%=      5-min Rain = 0
KFL1 120204Z 05006KT 16/07 A3042 RMK A01 T01620074  RH  056%=      5-min Rain = 0
KFL1 120205Z 04006KT 16/07 A3042 RMK A01 T01620074  RH  056%=      5-min Rain = 0
KFL1 120206Z 05006KT 16/07 A3042 RMK A01 T01600072  RH  056%=      5-min Rain = 0
KFL1 120207Z 05007KT 16/07 A3042 RMK A01 T01600072  RH  056%=      5-min Rain = 0
KFL1 120208Z 05006KT 16/07 A3042 RMK A01 T01600073  RH  056%=      5-min Rain = 0
KFL1 120209Z 04006KT 16/07 A3042 RMK A01 T01580071  RH  056%=      5-min Rain = 0
KFL1 120210Z 04007KT 16/07 A3042 RMK A01 T01590072  RH  056%=      5-min Rain = 0
KFL1 120211Z 04006KT 16/07 A3042 RMK A01 T01600073  RH  056%=      5-min Rain = 0
KFL1 120212Z 04006KT 16/07 A3042 RMK A01 T01590072  RH  056%=      5-min Rain = 0
KFL1 120213Z 04006KT 16/07 A3042 RMK A01 T01590072  RH  056%=      5-min Rain = 0
KFL1 120214Z 04005KT 16/07 A3042 RMK A01 T01580071  RH  056%=      5-min Rain = 0
KFL1 120215Z 04005KT 16/07 A3042 RMK A01 T01580072  RH  057%=      5-min Rain = 0
KFL1 120216Z 04006KT 16/07 A3042 RMK A01 T01560071  RH  057%=      5-min Rain = 0
KFL1 120217Z 05007KT 16/07 A3042 RMK A01 T01560071  RH  057%=      5-min Rain = 0
KFL1 120218Z 04006KT 15/07 A3042 RMK A01 T01540070  RH  057%=      5-min Rain = 0
KFL1 120219Z 04007KT 16/07 A3042 RMK A01 T01560072  RH  057%=      5-min Rain = 0
KFL1 120220Z 04006KT 15/07 A3042 RMK A01 T01530070  RH  057%=      5-min Rain = 0
KFL1 120221Z 03004KT 15/07 A3042 RMK A01 T01530073  RH  059%=      5-min Rain = 0
KFL1 120222Z 02004KT 15/08 A3042 RMK A01 T01470076  RH  062%=      5-min Rain = 0
KFL1 120223Z 02005KT 14/07 A3042 RMK A01 T01400074  RH  065%=      5-min Rain = 0
KFL1 120224Z 03005KT 14/08 A3042 RMK A01 T01360075  RH  067%=      5-min Rain = 0
KFL1 120225Z 04005KT 13/07 A3042 RMK A01 T01320073  RH  067%=      5-min Rain = 0
KFL1 120226Z 04005KT 13/07 A3042 RMK A01 T01320073  RH  068%=      5-min Rain = 0
KFL1 120227Z 04005KT 13/07 A3042 RMK A01 T01300071  RH  067%=      5-min Rain = 0
KFL1 120228Z 03004KT 13/07 A3042 RMK A01 T01310071  RH  067%=      5-min Rain = 0
KFL1 120229Z 04005KT 13/07 A3042 RMK A01 T01320070  RH  066%=      5-min Rain = 0
KFL1 120230Z 03005KT 13/07 A3042 RMK A01 T01320070  RH  066%=      5-min Rain = 0
KFL1 120231Z 04004KT 13/07 A3042 RMK A01 T01320070  RH  066%=      5-min Rain = 0
KFL1 120232Z 05004KT 13/07 A3042 RMK A01 T01310069  RH  066%=      5-min Rain = 0
KFL1 120233Z 04005KT 13/07 A3042 RMK A01 T01320068  RH  065%=      5-min Rain = 0
KFL1 120234Z 03004KT 13/07 A3042 RMK A01 T01340069  RH  065%=      5-min Rain = 0
KFL1 120235Z 03003KT 14/07 A3042 RMK A01 T01350071  RH  065%=      5-min Rain = 0
KFL1 120236Z 03003KT 13/07 A3042 RMK A01 T01300070  RH  067%=      5-min Rain = 0
KFL1 120237Z 03003KT 13/07 A3042 RMK A01 T01280070  RH  068%=      5-min Rain = 0
KFL1 120238Z 02005KT 13/07 A3042 RMK A01 T01250070  RH  069%=      5-min Rain = 0
KFL1 120239Z 02005KT 12/07 A3042 RMK A01 T01210070  RH  071%=      5-min Rain = 0
KFL1 120240Z 02006KT 12/07 A3042 RMK A01 T01200071  RH  072%=      5-min Rain = 0
KFL1 120241Z 01006KT 12/07 A3042 RMK A01 T01170069  RH  072%=      5-min Rain = 0
KFL1 120242Z 01006KT 12/07 A3042 RMK A01 T01170066  RH  071%=      5-min Rain = 0
KFL1 120243Z 01007KT 12/06 A3042 RMK A01 T01210064  RH  068%=      5-min Rain = 0
KFL1 120244Z 02007KT 12/07 A3042 RMK A01 T01240065  RH  067%=      5-min Rain = 0
KFL1 120245Z 02007KT 12/07 A3042 RMK A01 T01240067  RH  068%=      5-min Rain = 0
KFL1 120246Z 02007KT 12/07 A3042 RMK A01 T01220068  RH  069%=      5-min Rain = 0
KFL1 120247Z 02007KT 12/07 A3042 RMK A01 T01200069  RH  071%=      5-min Rain = 0
KFL1 120248Z 02007KT 12/07 A3042 RMK A01 T01180067  RH  071%=      5-min Rain = 0
KFL1 120249Z 02006KT 12/07 A3042 RMK A01 T01180066  RH  070%=      5-min Rain = 0
KFL1 120250Z 02007KT 12/07 A3042 RMK A01 T01190067  RH  071%=      5-min Rain = 0
KFL1 120251Z 02007KT 12/07 A3042 RMK A01 T01180066  RH  071%=      5-min Rain = 0
KFL1 120252Z 02007KT 12/07 A3042 RMK A01 T01180065  RH  070%=      5-min Rain = 0
KFL1 120253Z 02007KT 12/07 A3042 RMK A01 T01190066  RH  070%=      5-min Rain = 0
KFL1 120254Z 02007KT 12/07 A3042 RMK A01 T01190066  RH  070%=      5-min Rain = 0
KFL1 120255Z 02007KT 12/07 A3042 RMK A01 T01200069  RH  071%=      5-min Rain = 0
KFL1 120256Z 02007KT 12/07 A3042 RMK A01 T01160068  RH  073%=      5-min Rain = 0
KFL1 120257Z 02006KT 12/07 A3042 RMK A01 T01150071  RH  074%=      5-min Rain = 0
KFL1 120258Z 02006KT 11/07 A3042 RMK A01 T01120069  RH  075%=      5-min Rain = 0
KFL1 120259Z 03005KT 11/07 A3042 RMK A01 T01120070  RH  075%=      5-min Rain = 0
KFL1 120300Z 03004KT 11/07 A3042 RMK A01 T01100069  RH  076%=      5-min Rain = 0
KFL1 120301Z 03005KT 11/07 A3042 RMK A01 T01110070  RH  076%=      5-min Rain = 0
KFL1 120302Z 03005KT 11/07 A3042 RMK A01 T01090069  RH  076%=      5-min Rain = 0
KFL1 120303Z 02006KT 11/07 A3042 RMK A01 T01100069  RH  076%=      5-min Rain = 0
KFL1 120304Z 02006KT 11/07 A3042 RMK A01 T01100069  RH  076%=      5-min Rain = 0
KFL1 120305Z 02006KT 11/07 A3042 RMK A01 T01090070  RH  077%=      5-min Rain = 0
KFL1 120306Z 02007KT 11/07 A3042 RMK A01 T01070067  RH  076%=      5-min Rain = 0
KFL1 120307Z 02007KT 11/07 A3042 RMK A01 T01090066  RH  075%=      5-min Rain = 0
KFL1 120308Z 03007KT 11/07 A3042 RMK A01 T01110067  RH  074%=      5-min Rain = 0
KFL1 120309Z 02007KT 11/07 A3042 RMK A01 T01120065  RH  073%=      5-min Rain = 0
KFL1 120310Z 03006KT 11/07 A3042 RMK A01 T01140067  RH  073%=      5-min Rain = 0
KFL1 120311Z 03007KT 11/06 A3042 RMK A01 T01130064  RH  072%=      5-min Rain = 0
KFL1 120312Z 03006KT 12/06 A3042 RMK A01 T01160061  RH  069%=      5-min Rain = 0
KFL1 120313Z 03005KT 12/06 A3042 RMK A01 T01200062  RH  068%=      5-min Rain = 0
KFL1 120314Z 03004KT 12/07 A3042 RMK A01 T01230065  RH  068%=      5-min Rain = 0
KFL1 120315Z 04004KT 12/07 A3043 RMK A01 T01200067  RH  070%=      5-min Rain = 0
KFL1 120316Z 03005KT 12/07 A3043 RMK A01 T01180068  RH  071%=      5-min Rain = 0
KFL1 120317Z 03006KT 12/07 A3043 RMK A01 T01160067  RH  072%=      5-min Rain = 0
KFL1 120318Z 03006KT 12/06 A3043 RMK A01 T01160064  RH  070%=      5-min Rain = 0
KFL1 120319Z 03006KT 12/06 A3043 RMK A01 T01190064  RH  069%=      5-min Rain = 0
KFL1 120320Z 04006KT 12/06 A3043 RMK A01 T01230064  RH  067%=      5-min Rain = 0
KFL1 120321Z 04005KT 13/06 A3043 RMK A01 T01280060  RH  064%=      5-min Rain = 0
KFL1 120322Z 04006KT 13/06 A3043 RMK A01 T01340060  RH  061%=      5-min Rain = 0
KFL1 120323Z 04007KT 14/06 A3043 RMK A01 T01400062  RH  059%=      5-min Rain = 0
KFL1 120324Z 05006KT 14/06 A3043 RMK A01 T01420061  RH  058%=      5-min Rain = 0
KFL1 120325Z 04006KT 14/06 A3043 RMK A01 T01440062  RH  058%=      5-min Rain = 0
KFL1 120326Z 05006KT 15/06 A3043 RMK A01 T01450062  RH  058%=      5-min Rain = 0
KFL1 120327Z 05006KT 15/06 A3043 RMK A01 T01450061  RH  057%=      5-min Rain = 0
KFL1 120328Z 04005KT 15/06 A3043 RMK A01 T01450061  RH  057%=      5-min Rain = 0
KFL1 120329Z 04006KT 14/06 A3043 RMK A01 T01440061  RH  057%=      5-min Rain = 0
KFL1 120330Z 04006KT 14/06 A3043 RMK A01 T01440061  RH  057%=      5-min Rain = 0
KFL1 120331Z 05006KT 14/06 A3043 RMK A01 T01430061  RH  058%=      5-min Rain = 0
KFL1 120332Z 04007KT 14/06 A3043 RMK A01 T01420060  RH  058%=      5-min Rain = 0
KFL1 120333Z 05007KT 14/06 A3043 RMK A01 T01410060  RH  058%=      5-min Rain = 0
KFL1 120334Z 04007KT 14/06 A3043 RMK A01 T01420061  RH  058%=      5-min Rain = 0
KFL1 120335Z 05008KT 14/06 A3043 RMK A01 T01420061  RH  058%=      5-min Rain = 0
KFL1 120336Z 05008KT 14/06 A3043 RMK A01 T01410060  RH  058%=      5-min Rain = 0
KFL1 120337Z 05008KT 14/06 A3043 RMK A01 T01420060  RH  058%=      5-min Rain = 0
KFL1 120338Z 05008KT 14/06 A3043 RMK A01 T01430060  RH  057%=      5-min Rain = 0
KFL1 120339Z 05008KT 14/06 A3043 RMK A01 T01420058  RH  057%=      5-min Rain = 0
KFL1 120340Z 05007KT 14/06 A3043 RMK A01 T01420058  RH  057%=      5-min Rain = 0
KFL1 120341Z 05007KT 14/06 A3043 RMK A01 T01430059  RH  057%=      5-min Rain = 0
KFL1 120342Z 05008KT 14/06 A3043 RMK A01 T01420058  RH  057%=      5-min Rain = 0
KFL1 120343Z 05008KT 14/06 A3043 RMK A01 T01420058  RH  057%=      5-min Rain = 0
KFL1 120344Z 04008KT 14/06 A3043 RMK A01 T01420058  RH  057%=      5-min Rain = 0
KFL1 120345Z 05007KT 14/06 A3043 RMK A01 T01440058  RH  056%=      5-min Rain = 0
KFL1 120346Z 05006KT 15/06 A3043 RMK A01 T01450058  RH  056%=      5-min Rain = 0
KFL1 120347Z 05006KT 15/06 A3043 RMK A01 T01450057  RH  055%=      5-min Rain = 0
KFL1 120348Z 05005KT 15/06 A3043 RMK A01 T01450056  RH  055%=      5-min Rain = 0
KFL1 120349Z 05006KT 15/06 A3043 RMK A01 T01460056  RH  055%=      5-min Rain = 0
KFL1 120350Z 06005KT 15/06 A3043 RMK A01 T01460056  RH  055%=      5-min Rain = 0
KFL1 120351Z 06005KT 15/06 A3043 RMK A01 T01450056  RH  055%=      5-min Rain = 0
KFL1 120352Z 06005KT 15/06 A3043 RMK A01 T01450056  RH  055%=      5-min Rain = 0
KFL1 120353Z 06005KT 15/06 A3043 RMK A01 T01460056  RH  055%=      5-min Rain = 0
KFL1 120354Z 07005KT 15/06 A3043 RMK A01 T01460056  RH  055%=      5-min Rain = 0
KFL1 120355Z 07005KT 15/06 A3043 RMK A01 T01450056  RH  055%=      5-min Rain = 0
KFL1 120356Z 07006KT 15/06 A3043 RMK A01 T01460057  RH  055%=      5-min Rain = 0
KFL1 120357Z 07006KT 15/05 A3043 RMK A01 T01450054  RH  054%=      5-min Rain = 0
KFL1 120358Z 07007KT 15/05 A3043 RMK A01 T01460054  RH  054%=      5-min Rain = 0
KFL1 120359Z 07006KT 15/05 A3043 RMK A01 T01480054  RH  053%=      5-min Rain = 0
KFL1 120400Z 05005KT 15/05 A3043 RMK A01 T01480052  RH  053%=      5-min Rain = 0
KFL1 120401Z 05007KT 15/05 A3043 RMK A01 T01500052  RH  052%=      5-min Rain = 0
KFL1 120402Z 05008KT 15/05 A3043 RMK A01 T01530053  RH  051%=      5-min Rain = 0
KFL1 120403Z 05007KT 16/05 A3043 RMK A01 T01560053  RH  050%=      5-min Rain = 0
KFL1 120404Z 04006KT 16/05 A3043 RMK A01 T01570052  RH  050%=      5-min Rain = 0
KFL1 120405Z 04007KT 16/05 A3043 RMK A01 T01580053  RH  050%=      5-min Rain = 0
KFL1 120406Z 04007KT 16/05 A3043 RMK A01 T01580053  RH  050%=      5-min Rain = 0
KFL1 120407Z 05007KT 16/05 A3043 RMK A01 T01580053  RH  050%=      5-min Rain = 0
KFL1 120408Z 05007KT 16/05 A3043 RMK A01 T01570053  RH  050%=      5-min Rain = 0
KFL1 120409Z 05006KT 16/05 A3043 RMK A01 T01560053  RH  050%=      5-min Rain = 0
KFL1 120410Z 04006KT 16/05 A3043 RMK A01 T01550052  RH  050%=      5-min Rain = 0
KFL1 120411Z 02006KT 16/06 A3043 RMK A01 T01560055  RH  051%=      5-min Rain = 0
KFL1 120412Z 02008KT 15/06 A3043 RMK A01 T01540058  RH  053%=      5-min Rain = 0
KFL1 120413Z 02010KT 15/06 A3043 RMK A01 T01480059  RH  055%=      5-min Rain = 0
KFL1 120414Z 03009KT 15/06 A3043 RMK A01 T01450057  RH  056%=      5-min Rain = 0
KFL1 120415Z 03008KT 15/05 A3043 RMK A01 T01480054  RH  054%=      5-min Rain = 0
KFL1 120416Z 03008KT 15/05 A3043 RMK A01 T01510053  RH  052%=      5-min Rain = 0
KFL1 120417Z 03008KT 16/05 A3043 RMK A01 T01550053  RH  051%=      5-min Rain = 0
KFL1 120418Z 04008KT 16/05 A3043 RMK A01 T01560051  RH  050%=      5-min Rain = 0
KFL1 120419Z 04007KT 16/05 A3043 RMK A01 T01600052  RH  049%=      5-min Rain = 0
KFL1 120420Z 04007KT 16/05 A3043 RMK A01 T01610051  RH  048%=      5-min Rain = 0
KFL1 120421Z 05006KT 16/05 A3043 RMK A01 T01610051  RH  048%=      5-min Rain = 0
KFL1 120422Z 05006KT 16/05 A3043 RMK A01 T01620052  RH  048%=      5-min Rain = 0
KFL1 120423Z 05006KT 16/05 A3043 RMK A01 T01610053  RH  049%=      5-min Rain = 0
KFL1 120424Z 05006KT 16/06 A3043 RMK A01 T01590055  RH  050%=      5-min Rain = 0
KFL1 120425Z 05007KT 16/06 A3043 RMK A01 T01560055  RH  051%=      5-min Rain = 0
KFL1 120426Z 05008KT 15/06 A3043 RMK A01 T01520055  RH  052%=      5-min Rain = 0
KFL1 120427Z 04007KT 15/05 A3043 RMK A01 T01490054  RH  053%=      5-min Rain = 0
KFL1 120428Z 04007KT 15/05 A3043 RMK A01 T01480054  RH  053%=      5-min Rain = 0
KFL1 120429Z 05006KT 15/05 A3043 RMK A01 T01480054  RH  053%=      5-min Rain = 0
KFL1 120430Z 05005KT 15/05 A3043 RMK A01 T01480054  RH  053%=      5-min Rain = 0
KFL1 120431Z 05006KT 15/05 A3043 RMK A01 T01480054  RH  053%=      5-min Rain = 0
KFL1 120432Z 05006KT 15/06 A3043 RMK A01 T01470055  RH  054%=      5-min Rain = 0
KFL1 120433Z 05007KT 15/06 A3043 RMK A01 T01470056  RH  054%=      5-min Rain = 0
KFL1 120434Z 04007KT 15/06 A3043 RMK A01 T01450056  RH  055%=      5-min Rain = 0
KFL1 120435Z 04007KT 14/06 A3043 RMK A01 T01430055  RH  055%=      5-min Rain = 0
KFL1 120436Z 05007KT 14/06 A3043 RMK A01 T01430055  RH  055%=      5-min Rain = 0
KFL1 120437Z 05006KT 15/06 A3044 RMK A01 T01450056  RH  055%=      5-min Rain = 0
KFL1 120438Z 05006KT 14/05 A3044 RMK A01 T01440054  RH  055%=      5-min Rain = 0
KFL1 120439Z 06006KT 14/06 A3044 RMK A01 T01440055  RH  055%=      5-min Rain = 0
KFL1 120440Z 05007KT 15/06 A3044 RMK A01 T01450055  RH  055%=      5-min Rain = 0
KFL1 120441Z 04007KT 14/06 A3044 RMK A01 T01440055  RH  055%=      5-min Rain = 0
KFL1 120442Z 04007KT 14/05 A3044 RMK A01 T01420054  RH  055%=      5-min Rain = 0
KFL1 120443Z 04007KT 14/06 A3044 RMK A01 T01430055  RH  056%=      5-min Rain = 0
KFL1 120444Z 04008KT 14/06 A3044 RMK A01 T01430055  RH  055%=      5-min Rain = 0
KFL1 120445Z 05006KT 15/06 A3044 RMK A01 T01450055  RH  055%=      5-min Rain = 0
KFL1 120446Z 05007KT 15/06 A3044 RMK A01 T01460055  RH  054%=      5-min Rain = 0
KFL1 120447Z 05007KT 15/06 A3044 RMK A01 T01470055  RH  054%=      5-min Rain = 0
KFL1 120448Z 05007KT 15/06 A3044 RMK A01 T01470057  RH  055%=      5-min Rain = 0
KFL1 120449Z 06006KT 15/06 A3044 RMK A01 T01460058  RH  055%=      5-min Rain = 0
KFL1 120450Z 06007KT 15/06 A3044 RMK A01 T01450059  RH  056%=      5-min Rain = 0
KFL1 120451Z 06007KT 14/06 A3044 RMK A01 T01440058  RH  056%=      5-min Rain = 0
KFL1 120452Z 05006KT 14/06 A3044 RMK A01 T01430057  RH  056%=      5-min Rain = 0
KFL1 120453Z 06006KT 14/06 A3044 RMK A01 T01420056  RH  056%=      5-min Rain = 0
KFL1 120454Z 06006KT 14/06 A3044 RMK A01 T01420055  RH  056%=      5-min Rain = 0
KFL1 120455Z 06005KT 14/06 A3044 RMK A01 T01430056  RH  056%=      5-min Rain = 0
KFL1 120456Z 06006KT 14/06 A3044 RMK A01 T01430057  RH  056%=      5-min Rain = 0
KFL1 120457Z 06007KT 14/06 A3044 RMK A01 T01420057  RH  056%=      5-min Rain = 0
KFL1 120458Z 05006KT 14/06 A3044 RMK A01 T01420058  RH  057%=      5-min Rain = 0
KFL1 120459Z 06006KT 14/06 A3044 RMK A01 T01420057  RH  057%=      5-min Rain = 0

Page generated in 0.1247 seconds.